<?xml version="1.0" encoding="UTF-8" standalone="no" ?>
<gpx xmlns="http://www.topografix.com/GPX/1/1" xmlns:xsi="http://www.w3.org/2001/XMLSchema-instance" xsi:schemaLocation="http://www.topografix.com/GPX/1/1 http://www.topografix.com/GPX/1/1/gpx.xsd" version="1.1" creator="VisuGPX - https://www.visugpx.com">
  <metadata>
    <name>Raid 21 PAPh</name>
    <desc><![CDATA[brouillon pour Raid ]]></desc>
  </metadata>
  <trk>
    <name><![CDATA[Saint-Germain-de-Belvès]]></name>
    <trkseg>
      <trkpt lat="44.81044" lon="1.05423">
        <ele>231.466</ele>
        <time>2021-05-28T07:29:29Z</time>
      </trkpt>
      <trkpt lat="44.81046" lon="1.05415">
        <ele>232.058</ele>
        <time>2021-05-28T07:29:30Z</time>
      </trkpt>
      <trkpt lat="44.81051" lon="1.05418">
        <ele>231.732</ele>
        <time>2021-05-28T07:29:32Z</time>
      </trkpt>
      <trkpt lat="44.81048" lon="1.05417">
        <ele>231.865</ele>
        <time>2021-05-28T07:29:32Z</time>
      </trkpt>
      <trkpt lat="44.81049" lon="1.05423">
        <ele>231.352</ele>
        <time>2021-05-28T07:29:33Z</time>
      </trkpt>
      <trkpt lat="44.81061" lon="1.05426">
        <ele>230.786</ele>
        <time>2021-05-28T07:29:36Z</time>
      </trkpt>
      <trkpt lat="44.81077" lon="1.05422">
        <ele>230.557</ele>
        <time>2021-05-28T07:29:40Z</time>
      </trkpt>
      <trkpt lat="44.81095" lon="1.05413">
        <ele>230.927</ele>
        <time>2021-05-28T07:29:45Z</time>
      </trkpt>
      <trkpt lat="44.8112" lon="1.05395">
        <ele>231.686</ele>
        <time>2021-05-28T07:29:51Z</time>
      </trkpt>
      <trkpt lat="44.81134" lon="1.05411">
        <ele>229.979</ele>
        <time>2021-05-28T07:29:55Z</time>
      </trkpt>
      <trkpt lat="44.81136" lon="1.0543">
        <ele>228.533</ele>
        <time>2021-05-28T07:29:58Z</time>
      </trkpt>
      <trkpt lat="44.81129" lon="1.05449">
        <ele>226.866</ele>
        <time>2021-05-28T07:30:02Z</time>
      </trkpt>
      <trkpt lat="44.81101" lon="1.05499">
        <ele>221.289</ele>
        <time>2021-05-28T07:30:13Z</time>
      </trkpt>
      <trkpt lat="44.81054" lon="1.05554">
        <ele>214.381</ele>
        <time>2021-05-28T07:30:27Z</time>
      </trkpt>
      <trkpt lat="44.81047" lon="1.05565">
        <ele>213.638</ele>
        <time>2021-05-28T07:30:29Z</time>
      </trkpt>
      <trkpt lat="44.81039" lon="1.05589">
        <ele>211.403</ele>
        <time>2021-05-28T07:30:34Z</time>
      </trkpt>
      <trkpt lat="44.81027" lon="1.05612">
        <ele>209.094</ele>
        <time>2021-05-28T07:30:38Z</time>
      </trkpt>
      <trkpt lat="44.80998" lon="1.0565">
        <ele>205.242</ele>
        <time>2021-05-28T07:30:48Z</time>
      </trkpt>
      <trkpt lat="44.80984" lon="1.05677">
        <ele>203.629</ele>
        <time>2021-05-28T07:30:53Z</time>
      </trkpt>
      <trkpt lat="44.80971" lon="1.05712">
        <ele>200.376</ele>
        <time>2021-05-28T07:31:00Z</time>
      </trkpt>
      <trkpt lat="44.80948" lon="1.05745">
        <ele>199.858</ele>
        <time>2021-05-28T07:31:07Z</time>
      </trkpt>
      <trkpt lat="44.80943" lon="1.05761">
        <ele>198.257</ele>
        <time>2021-05-28T07:31:10Z</time>
      </trkpt>
      <trkpt lat="44.80941" lon="1.05779">
        <ele>195.986</ele>
        <time>2021-05-28T07:31:13Z</time>
      </trkpt>
      <trkpt lat="44.8095" lon="1.05802">
        <ele>194.453</ele>
        <time>2021-05-28T07:31:18Z</time>
      </trkpt>
      <trkpt lat="44.8096" lon="1.05814">
        <ele>194.086</ele>
        <time>2021-05-28T07:31:21Z</time>
      </trkpt>
      <trkpt lat="44.80992" lon="1.05838">
        <ele>194.708</ele>
        <time>2021-05-28T07:31:29Z</time>
      </trkpt>
      <trkpt lat="44.81015" lon="1.05876">
        <ele>195.916</ele>
        <time>2021-05-28T07:31:37Z</time>
      </trkpt>
      <trkpt lat="44.81033" lon="1.05925">
        <ele>197.847</ele>
        <time>2021-05-28T07:31:47Z</time>
      </trkpt>
      <trkpt lat="44.81029" lon="1.05947">
        <ele>199.422</ele>
        <time>2021-05-28T07:31:50Z</time>
      </trkpt>
      <trkpt lat="44.81029" lon="1.05962">
        <ele>200.641</ele>
        <time>2021-05-28T07:31:53Z</time>
      </trkpt>
      <trkpt lat="44.81031" lon="1.05965">
        <ele>201.012</ele>
        <time>2021-05-28T07:31:54Z</time>
      </trkpt>
      <trkpt lat="44.81026" lon="1.0599">
        <ele>203.819</ele>
        <time>2021-05-28T07:31:58Z</time>
      </trkpt>
      <trkpt lat="44.81024" lon="1.06018">
        <ele>207.642</ele>
        <time>2021-05-28T07:32:03Z</time>
      </trkpt>
      <trkpt lat="44.81026" lon="1.06033">
        <ele>210.008</ele>
        <time>2021-05-28T07:32:05Z</time>
      </trkpt>
      <trkpt lat="44.8102" lon="1.06045">
        <ele>210.757</ele>
        <time>2021-05-28T07:32:07Z</time>
      </trkpt>
      <trkpt lat="44.81021" lon="1.06069">
        <ele>213.056</ele>
        <time>2021-05-28T07:32:11Z</time>
      </trkpt>
      <trkpt lat="44.81016" lon="1.06081">
        <ele>213.863</ele>
        <time>2021-05-28T07:32:14Z</time>
      </trkpt>
      <trkpt lat="44.81015" lon="1.06108">
        <ele>215.367</ele>
        <time>2021-05-28T07:32:18Z</time>
      </trkpt>
      <trkpt lat="44.81011" lon="1.0611">
        <ele>215.054</ele>
        <time>2021-05-28T07:32:19Z</time>
      </trkpt>
      <trkpt lat="44.81005" lon="1.06134">
        <ele>214.276</ele>
        <time>2021-05-28T07:32:23Z</time>
      </trkpt>
      <trkpt lat="44.81006" lon="1.06144">
        <ele>214.22</ele>
        <time>2021-05-28T07:32:25Z</time>
      </trkpt>
      <trkpt lat="44.80999" lon="1.06171">
        <ele>212.556</ele>
        <time>2021-05-28T07:32:30Z</time>
      </trkpt>
      <trkpt lat="44.81004" lon="1.06185">
        <ele>212.111</ele>
        <time>2021-05-28T07:32:32Z</time>
      </trkpt>
      <trkpt lat="44.81072" lon="1.06217">
        <ele>218.655</ele>
        <time>2021-05-28T07:32:49Z</time>
      </trkpt>
      <trkpt lat="44.81091" lon="1.06232">
        <ele>217.908</ele>
        <time>2021-05-28T07:32:54Z</time>
      </trkpt>
      <trkpt lat="44.81106" lon="1.06257">
        <ele>216.038</ele>
        <time>2021-05-28T07:33:00Z</time>
      </trkpt>
      <trkpt lat="44.81146" lon="1.06345">
        <ele>214.454</ele>
        <time>2021-05-28T07:33:17Z</time>
      </trkpt>
      <trkpt lat="44.81173" lon="1.06385">
        <ele>216.968</ele>
        <time>2021-05-28T07:33:26Z</time>
      </trkpt>
      <trkpt lat="44.81183" lon="1.06404">
        <ele>217.338</ele>
        <time>2021-05-28T07:33:30Z</time>
      </trkpt>
      <trkpt lat="44.81191" lon="1.06413">
        <ele>218.083</ele>
        <time>2021-05-28T07:33:33Z</time>
      </trkpt>
      <trkpt lat="44.812" lon="1.06418">
        <ele>219.524</ele>
        <time>2021-05-28T07:33:35Z</time>
      </trkpt>
      <trkpt lat="44.8122" lon="1.0644">
        <ele>222.015</ele>
        <time>2021-05-28T07:33:41Z</time>
      </trkpt>
      <trkpt lat="44.81232" lon="1.06469">
        <ele>222.908</ele>
        <time>2021-05-28T07:33:46Z</time>
      </trkpt>
      <trkpt lat="44.81229" lon="1.06492">
        <ele>224.364</ele>
        <time>2021-05-28T07:33:50Z</time>
      </trkpt>
      <trkpt lat="44.81213" lon="1.06547">
        <ele>227.961</ele>
        <time>2021-05-28T07:34:00Z</time>
      </trkpt>
      <trkpt lat="44.81206" lon="1.06582">
        <ele>231.45</ele>
        <time>2021-05-28T07:34:06Z</time>
      </trkpt>
      <trkpt lat="44.8121" lon="1.06614">
        <ele>234.512</ele>
        <time>2021-05-28T07:34:11Z</time>
      </trkpt>
      <trkpt lat="44.81216" lon="1.0663">
        <ele>235.737</ele>
        <time>2021-05-28T07:34:14Z</time>
      </trkpt>
      <trkpt lat="44.81236" lon="1.06657">
        <ele>239.254</ele>
        <time>2021-05-28T07:34:21Z</time>
      </trkpt>
      <trkpt lat="44.81243" lon="1.06678">
        <ele>240.922</ele>
        <time>2021-05-28T07:34:25Z</time>
      </trkpt>
      <trkpt lat="44.81251" lon="1.06728">
        <ele>244.269</ele>
        <time>2021-05-28T07:34:33Z</time>
      </trkpt>
      <trkpt lat="44.81252" lon="1.06759">
        <ele>246.9</ele>
        <time>2021-05-28T07:34:38Z</time>
      </trkpt>
      <trkpt lat="44.81261" lon="1.06794">
        <ele>250.336</ele>
        <time>2021-05-28T07:34:44Z</time>
      </trkpt>
      <trkpt lat="44.81261" lon="1.06808">
        <ele>250.91</ele>
        <time>2021-05-28T07:34:47Z</time>
      </trkpt>
      <trkpt lat="44.81251" lon="1.06845">
        <ele>252.084</ele>
        <time>2021-05-28T07:34:53Z</time>
      </trkpt>
      <trkpt lat="44.8125" lon="1.06876">
        <ele>253.04</ele>
        <time>2021-05-28T07:34:59Z</time>
      </trkpt>
      <trkpt lat="44.81254" lon="1.06902">
        <ele>253.796</ele>
        <time>2021-05-28T07:35:03Z</time>
      </trkpt>
      <trkpt lat="44.81252" lon="1.06916">
        <ele>254.144</ele>
        <time>2021-05-28T07:35:05Z</time>
      </trkpt>
      <trkpt lat="44.81225" lon="1.06929">
        <ele>255.672</ele>
        <time>2021-05-28T07:35:12Z</time>
      </trkpt>
      <trkpt lat="44.81207" lon="1.06942">
        <ele>257.237</ele>
        <time>2021-05-28T07:35:17Z</time>
      </trkpt>
      <trkpt lat="44.81197" lon="1.06947">
        <ele>257.376</ele>
        <time>2021-05-28T07:35:19Z</time>
      </trkpt>
      <trkpt lat="44.81158" lon="1.06957">
        <ele>256.712</ele>
        <time>2021-05-28T07:35:28Z</time>
      </trkpt>
      <trkpt lat="44.81141" lon="1.06969">
        <ele>256.52</ele>
        <time>2021-05-28T07:35:33Z</time>
      </trkpt>
      <trkpt lat="44.81025" lon="1.07019">
        <ele>247.05</ele>
        <time>2021-05-28T07:36:01Z</time>
      </trkpt>
      <trkpt lat="44.80973" lon="1.07066">
        <ele>243.268</ele>
        <time>2021-05-28T07:36:16Z</time>
      </trkpt>
      <trkpt lat="44.8094" lon="1.07118">
        <ele>245.5</ele>
        <time>2021-05-28T07:36:27Z</time>
      </trkpt>
      <trkpt lat="44.80925" lon="1.07159">
        <ele>248.386</ele>
        <time>2021-05-28T07:36:35Z</time>
      </trkpt>
      <trkpt lat="44.80905" lon="1.0715">
        <ele>247.444</ele>
        <time>2021-05-28T07:36:40Z</time>
      </trkpt>
      <trkpt lat="44.8088" lon="1.07146">
        <ele>245.914</ele>
        <time>2021-05-28T07:36:46Z</time>
      </trkpt>
      <trkpt lat="44.80876" lon="1.07147">
        <ele>245.723</ele>
        <time>2021-05-28T07:36:47Z</time>
      </trkpt>
      <trkpt lat="44.80869" lon="1.07154">
        <ele>245.514</ele>
        <time>2021-05-28T07:36:49Z</time>
      </trkpt>
      <trkpt lat="44.80864" lon="1.07165">
        <ele>245.442</ele>
        <time>2021-05-28T07:36:51Z</time>
      </trkpt>
      <trkpt lat="44.80865" lon="1.07175">
        <ele>245.765</ele>
        <time>2021-05-28T07:36:52Z</time>
      </trkpt>
      <trkpt lat="44.80872" lon="1.07187">
        <ele>246.129</ele>
        <time>2021-05-28T07:36:55Z</time>
      </trkpt>
      <trkpt lat="44.80904" lon="1.07222">
        <ele>248.4</ele>
        <time>2021-05-28T07:37:04Z</time>
      </trkpt>
      <trkpt lat="44.80929" lon="1.07255">
        <ele>248.634</ele>
        <time>2021-05-28T07:37:12Z</time>
      </trkpt>
      <trkpt lat="44.80961" lon="1.07308">
        <ele>246.595</ele>
        <time>2021-05-28T07:37:24Z</time>
      </trkpt>
      <trkpt lat="44.81009" lon="1.07355">
        <ele>241.666</ele>
        <time>2021-05-28T07:37:38Z</time>
      </trkpt>
      <trkpt lat="44.81021" lon="1.07378">
        <ele>240.206</ele>
        <time>2021-05-28T07:37:42Z</time>
      </trkpt>
      <trkpt lat="44.81025" lon="1.07378">
        <ele>239.987</ele>
        <time>2021-05-28T07:37:43Z</time>
      </trkpt>
      <trkpt lat="44.81032" lon="1.07361">
        <ele>239.518</ele>
        <time>2021-05-28T07:37:47Z</time>
      </trkpt>
      <trkpt lat="44.81036" lon="1.07357">
        <ele>239.619</ele>
        <time>2021-05-28T07:37:48Z</time>
      </trkpt>
      <trkpt lat="44.81054" lon="1.07354">
        <ele>238.655</ele>
        <time>2021-05-28T07:37:52Z</time>
      </trkpt>
      <trkpt lat="44.81073" lon="1.0736">
        <ele>236.784</ele>
        <time>2021-05-28T07:37:56Z</time>
      </trkpt>
      <trkpt lat="44.81091" lon="1.07373">
        <ele>235.3</ele>
        <time>2021-05-28T07:38:01Z</time>
      </trkpt>
      <trkpt lat="44.81154" lon="1.07407">
        <ele>230.725</ele>
        <time>2021-05-28T07:38:17Z</time>
      </trkpt>
      <trkpt lat="44.81173" lon="1.07409">
        <ele>229.819</ele>
        <time>2021-05-28T07:38:21Z</time>
      </trkpt>
      <trkpt lat="44.81187" lon="1.07407">
        <ele>229.676</ele>
        <time>2021-05-28T07:38:25Z</time>
      </trkpt>
      <trkpt lat="44.81246" lon="1.0739">
        <ele>231.77</ele>
        <time>2021-05-28T07:38:39Z</time>
      </trkpt>
      <trkpt lat="44.81276" lon="1.07403">
        <ele>232.441</ele>
        <time>2021-05-28T07:38:46Z</time>
      </trkpt>
      <trkpt lat="44.8129" lon="1.07404">
        <ele>233.244</ele>
        <time>2021-05-28T07:38:49Z</time>
      </trkpt>
      <trkpt lat="44.81309" lon="1.0741">
        <ele>233.852</ele>
        <time>2021-05-28T07:38:54Z</time>
      </trkpt>
      <trkpt lat="44.81332" lon="1.07399">
        <ele>234.498</ele>
        <time>2021-05-28T07:39:00Z</time>
      </trkpt>
      <trkpt lat="44.81357" lon="1.07382">
        <ele>235.565</ele>
        <time>2021-05-28T07:39:06Z</time>
      </trkpt>
      <trkpt lat="44.81369" lon="1.07378">
        <ele>234.626</ele>
        <time>2021-05-28T07:39:09Z</time>
      </trkpt>
      <trkpt lat="44.81386" lon="1.07367">
        <ele>233.903</ele>
        <time>2021-05-28T07:39:13Z</time>
      </trkpt>
      <trkpt lat="44.81415" lon="1.07357">
        <ele>230.916</ele>
        <time>2021-05-28T07:39:20Z</time>
      </trkpt>
      <trkpt lat="44.81421" lon="1.07349">
        <ele>230.483</ele>
        <time>2021-05-28T07:39:22Z</time>
      </trkpt>
      <trkpt lat="44.8144" lon="1.07337">
        <ele>227.893</ele>
        <time>2021-05-28T07:39:27Z</time>
      </trkpt>
      <trkpt lat="44.81463" lon="1.07309">
        <ele>228.751</ele>
        <time>2021-05-28T07:39:34Z</time>
      </trkpt>
      <trkpt lat="44.81485" lon="1.07296">
        <ele>230.866</ele>
        <time>2021-05-28T07:39:40Z</time>
      </trkpt>
      <trkpt lat="44.81488" lon="1.07299">
        <ele>230.649</ele>
        <time>2021-05-28T07:39:41Z</time>
      </trkpt>
      <trkpt lat="44.81512" lon="1.07384">
        <ele>219.943</ele>
        <time>2021-05-28T07:39:56Z</time>
      </trkpt>
      <trkpt lat="44.81515" lon="1.07416">
        <ele>214.654</ele>
        <time>2021-05-28T07:40:01Z</time>
      </trkpt>
      <trkpt lat="44.81502" lon="1.07536">
        <ele>210</ele>
        <time>2021-05-28T07:40:21Z</time>
      </trkpt>
      <trkpt lat="44.81497" lon="1.07557">
        <ele>210.327</ele>
        <time>2021-05-28T07:40:25Z</time>
      </trkpt>
      <trkpt lat="44.8144" lon="1.07687">
        <ele>216.465</ele>
        <time>2021-05-28T07:40:50Z</time>
      </trkpt>
      <trkpt lat="44.81411" lon="1.07745">
        <ele>217.741</ele>
        <time>2021-05-28T07:41:02Z</time>
      </trkpt>
      <trkpt lat="44.81409" lon="1.07771">
        <ele>218.409</ele>
        <time>2021-05-28T07:41:06Z</time>
      </trkpt>
      <trkpt lat="44.81411" lon="1.07801">
        <ele>219.165</ele>
        <time>2021-05-28T07:41:11Z</time>
      </trkpt>
      <trkpt lat="44.81423" lon="1.07846">
        <ele>219.088</ele>
        <time>2021-05-28T07:41:19Z</time>
      </trkpt>
      <trkpt lat="44.81427" lon="1.07874">
        <ele>219.482</ele>
        <time>2021-05-28T07:41:24Z</time>
      </trkpt>
      <trkpt lat="44.81426" lon="1.07901">
        <ele>220.336</ele>
        <time>2021-05-28T07:41:28Z</time>
      </trkpt>
      <trkpt lat="44.81419" lon="1.07923">
        <ele>221.083</ele>
        <time>2021-05-28T07:41:32Z</time>
      </trkpt>
      <trkpt lat="44.81412" lon="1.08002">
        <ele>227.986</ele>
        <time>2021-05-28T07:41:46Z</time>
      </trkpt>
      <trkpt lat="44.81412" lon="1.08058">
        <ele>228.505</ele>
        <time>2021-05-28T07:41:55Z</time>
      </trkpt>
      <trkpt lat="44.81414" lon="1.08085">
        <ele>226.074</ele>
        <time>2021-05-28T07:41:59Z</time>
      </trkpt>
      <trkpt lat="44.81418" lon="1.08094">
        <ele>225.124</ele>
        <time>2021-05-28T07:42:01Z</time>
      </trkpt>
      <trkpt lat="44.81497" lon="1.08208">
        <ele>218.788</ele>
        <time>2021-05-28T07:42:28Z</time>
      </trkpt>
      <trkpt lat="44.81494" lon="1.08213">
        <ele>218.451</ele>
        <time>2021-05-28T07:42:29Z</time>
      </trkpt>
      <trkpt lat="44.81483" lon="1.08212">
        <ele>218.434</ele>
        <time>2021-05-28T07:42:31Z</time>
      </trkpt>
      <trkpt lat="44.81479" lon="1.08214">
        <ele>218.289</ele>
        <time>2021-05-28T07:42:32Z</time>
      </trkpt>
      <trkpt lat="44.81476" lon="1.08223">
        <ele>217.767</ele>
        <time>2021-05-28T07:42:34Z</time>
      </trkpt>
      <trkpt lat="44.81495" lon="1.08289">
        <ele>212.897</ele>
        <time>2021-05-28T07:42:46Z</time>
      </trkpt>
      <trkpt lat="44.81511" lon="1.08357">
        <ele>207.163</ele>
        <time>2021-05-28T07:42:57Z</time>
      </trkpt>
      <trkpt lat="44.81531" lon="1.08467">
        <ele>197.214</ele>
        <time>2021-05-28T07:43:16Z</time>
      </trkpt>
      <trkpt lat="44.81531" lon="1.08478">
        <ele>196.057</ele>
        <time>2021-05-28T07:43:18Z</time>
      </trkpt>
      <trkpt lat="44.81519" lon="1.08503">
        <ele>194.188</ele>
        <time>2021-05-28T07:43:23Z</time>
      </trkpt>
      <trkpt lat="44.81511" lon="1.08527">
        <ele>192.105</ele>
        <time>2021-05-28T07:43:28Z</time>
      </trkpt>
      <trkpt lat="44.81506" lon="1.08558">
        <ele>189.134</ele>
        <time>2021-05-28T07:43:33Z</time>
      </trkpt>
      <trkpt lat="44.81501" lon="1.08568">
        <ele>188.512</ele>
        <time>2021-05-28T07:43:35Z</time>
      </trkpt>
      <trkpt lat="44.8148" lon="1.08593">
        <ele>186.962</ele>
        <time>2021-05-28T07:43:41Z</time>
      </trkpt>
      <trkpt lat="44.81466" lon="1.08616">
        <ele>185.618</ele>
        <time>2021-05-28T07:43:46Z</time>
      </trkpt>
      <trkpt lat="44.81433" lon="1.0864">
        <ele>185.247</ele>
        <time>2021-05-28T07:43:55Z</time>
      </trkpt>
      <trkpt lat="44.81427" lon="1.08657">
        <ele>184.35</ele>
        <time>2021-05-28T07:43:58Z</time>
      </trkpt>
      <trkpt lat="44.81426" lon="1.08691">
        <ele>182.758</ele>
        <time>2021-05-28T07:44:04Z</time>
      </trkpt>
      <trkpt lat="44.81421" lon="1.08705">
        <ele>182.355</ele>
        <time>2021-05-28T07:44:06Z</time>
      </trkpt>
      <trkpt lat="44.81414" lon="1.08716">
        <ele>181.893</ele>
        <time>2021-05-28T07:44:09Z</time>
      </trkpt>
      <trkpt lat="44.81401" lon="1.08729">
        <ele>180.838</ele>
        <time>2021-05-28T07:44:12Z</time>
      </trkpt>
      <trkpt lat="44.81382" lon="1.0876">
        <ele>178.137</ele>
        <time>2021-05-28T07:44:19Z</time>
      </trkpt>
      <trkpt lat="44.81374" lon="1.08823">
        <ele>173.877</ele>
        <time>2021-05-28T07:44:30Z</time>
      </trkpt>
      <trkpt lat="44.81369" lon="1.08846">
        <ele>171.318</ele>
        <time>2021-05-28T07:44:34Z</time>
      </trkpt>
      <trkpt lat="44.81359" lon="1.08879">
        <ele>167.523</ele>
        <time>2021-05-28T07:44:40Z</time>
      </trkpt>
      <trkpt lat="44.81341" lon="1.08919">
        <ele>163.375</ele>
        <time>2021-05-28T07:44:48Z</time>
      </trkpt>
      <trkpt lat="44.8134" lon="1.08929">
        <ele>162.643</ele>
        <time>2021-05-28T07:44:49Z</time>
      </trkpt>
      <trkpt lat="44.81325" lon="1.08972">
        <ele>157.367</ele>
        <time>2021-05-28T07:44:57Z</time>
      </trkpt>
      <trkpt lat="44.81347" lon="1.09032">
        <ele>152.177</ele>
        <time>2021-05-28T07:45:08Z</time>
      </trkpt>
      <trkpt lat="44.81339" lon="1.09053">
        <ele>148.459</ele>
        <time>2021-05-28T07:45:12Z</time>
      </trkpt>
      <trkpt lat="44.81335" lon="1.09056">
        <ele>147.625</ele>
        <time>2021-05-28T07:45:13Z</time>
      </trkpt>
      <trkpt lat="44.81324" lon="1.09058">
        <ele>146.032</ele>
        <time>2021-05-28T07:45:16Z</time>
      </trkpt>
      <trkpt lat="44.81318" lon="1.09056">
        <ele>145.405</ele>
        <time>2021-05-28T07:45:17Z</time>
      </trkpt>
      <trkpt lat="44.81293" lon="1.09022">
        <ele>146.956</ele>
        <time>2021-05-28T07:45:26Z</time>
      </trkpt>
      <trkpt lat="44.81289" lon="1.09023">
        <ele>146.258</ele>
        <time>2021-05-28T07:45:27Z</time>
      </trkpt>
      <trkpt lat="44.81289" lon="1.09055">
        <ele>141.218</ele>
        <time>2021-05-28T07:45:32Z</time>
      </trkpt>
      <trkpt lat="44.8128" lon="1.09098">
        <ele>137.258</ele>
        <time>2021-05-28T07:45:39Z</time>
      </trkpt>
      <trkpt lat="44.81276" lon="1.09107">
        <ele>136.55</ele>
        <time>2021-05-28T07:45:41Z</time>
      </trkpt>
      <trkpt lat="44.81259" lon="1.09124">
        <ele>133.615</ele>
        <time>2021-05-28T07:45:46Z</time>
      </trkpt>
      <trkpt lat="44.81246" lon="1.09143">
        <ele>129.661</ele>
        <time>2021-05-28T07:45:50Z</time>
      </trkpt>
      <trkpt lat="44.81246" lon="1.09168">
        <ele>126.264</ele>
        <time>2021-05-28T07:45:54Z</time>
      </trkpt>
      <trkpt lat="44.81235" lon="1.09267">
        <ele>118.611</ele>
        <time>2021-05-28T07:46:11Z</time>
      </trkpt>
      <trkpt lat="44.81235" lon="1.09303">
        <ele>117.833</ele>
        <time>2021-05-28T07:46:17Z</time>
      </trkpt>
      <trkpt lat="44.81229" lon="1.09369">
        <ele>112.617</ele>
        <time>2021-05-28T07:46:28Z</time>
      </trkpt>
      <trkpt lat="44.81233" lon="1.09376">
        <ele>112.136</ele>
        <time>2021-05-28T07:46:29Z</time>
      </trkpt>
      <trkpt lat="44.81265" lon="1.09397">
        <ele>110.57</ele>
        <time>2021-05-28T07:46:38Z</time>
      </trkpt>
      <trkpt lat="44.81314" lon="1.09395">
        <ele>107.544</ele>
        <time>2021-05-28T07:46:49Z</time>
      </trkpt>
      <trkpt lat="44.81366" lon="1.09387">
        <ele>105.016</ele>
        <time>2021-05-28T07:47:01Z</time>
      </trkpt>
      <trkpt lat="44.8138" lon="1.09392">
        <ele>103.181</ele>
        <time>2021-05-28T07:47:05Z</time>
      </trkpt>
      <trkpt lat="44.81384" lon="1.09398">
        <ele>101.907</ele>
        <time>2021-05-28T07:47:06Z</time>
      </trkpt>
      <trkpt lat="44.81387" lon="1.09414">
        <ele>99.196</ele>
        <time>2021-05-28T07:47:09Z</time>
      </trkpt>
      <trkpt lat="44.81387" lon="1.09481">
        <ele>97.164</ele>
        <time>2021-05-28T07:47:20Z</time>
      </trkpt>
      <trkpt lat="44.81367" lon="1.09503">
        <ele>99.913</ele>
        <time>2021-05-28T07:47:26Z</time>
      </trkpt>
      <trkpt lat="44.81345" lon="1.09507">
        <ele>102.127</ele>
        <time>2021-05-28T07:47:31Z</time>
      </trkpt>
      <trkpt lat="44.81306" lon="1.09519">
        <ele>106.32</ele>
        <time>2021-05-28T07:47:40Z</time>
      </trkpt>
      <trkpt lat="44.81279" lon="1.09522">
        <ele>109.161</ele>
        <time>2021-05-28T07:47:47Z</time>
      </trkpt>
      <trkpt lat="44.81264" lon="1.09529">
        <ele>111.069</ele>
        <time>2021-05-28T07:47:50Z</time>
      </trkpt>
      <trkpt lat="44.81236" lon="1.09547">
        <ele>114.091</ele>
        <time>2021-05-28T07:47:58Z</time>
      </trkpt>
      <trkpt lat="44.8121" lon="1.0957">
        <ele>117.847</ele>
        <time>2021-05-28T07:48:05Z</time>
      </trkpt>
      <trkpt lat="44.81201" lon="1.09571">
        <ele>119.358</ele>
        <time>2021-05-28T07:48:07Z</time>
      </trkpt>
      <trkpt lat="44.81194" lon="1.09582">
        <ele>119.855</ele>
        <time>2021-05-28T07:48:09Z</time>
      </trkpt>
      <trkpt lat="44.81184" lon="1.09591">
        <ele>121.722</ele>
        <time>2021-05-28T07:48:12Z</time>
      </trkpt>
      <trkpt lat="44.81173" lon="1.09595">
        <ele>124.377</ele>
        <time>2021-05-28T07:48:15Z</time>
      </trkpt>
      <trkpt lat="44.81166" lon="1.09603">
        <ele>125.403</ele>
        <time>2021-05-28T07:48:17Z</time>
      </trkpt>
      <trkpt lat="44.81152" lon="1.09608">
        <ele>128.649</ele>
        <time>2021-05-28T07:48:20Z</time>
      </trkpt>
      <trkpt lat="44.81145" lon="1.09607">
        <ele>130.437</ele>
        <time>2021-05-28T07:48:22Z</time>
      </trkpt>
      <trkpt lat="44.8114" lon="1.09612">
        <ele>131.029</ele>
        <time>2021-05-28T07:48:23Z</time>
      </trkpt>
      <trkpt lat="44.81124" lon="1.0962">
        <ele>133.944</ele>
        <time>2021-05-28T07:48:27Z</time>
      </trkpt>
      <trkpt lat="44.81116" lon="1.09629">
        <ele>134.911</ele>
        <time>2021-05-28T07:48:30Z</time>
      </trkpt>
      <trkpt lat="44.81095" lon="1.09642">
        <ele>137.528</ele>
        <time>2021-05-28T07:48:35Z</time>
      </trkpt>
      <trkpt lat="44.81078" lon="1.09657">
        <ele>138.854</ele>
        <time>2021-05-28T07:48:40Z</time>
      </trkpt>
      <trkpt lat="44.81069" lon="1.09671">
        <ele>139.105</ele>
        <time>2021-05-28T07:48:43Z</time>
      </trkpt>
      <trkpt lat="44.81053" lon="1.09684">
        <ele>141.058</ele>
        <time>2021-05-28T07:48:47Z</time>
      </trkpt>
      <trkpt lat="44.81035" lon="1.0969">
        <ele>144.34</ele>
        <time>2021-05-28T07:48:51Z</time>
      </trkpt>
      <trkpt lat="44.81018" lon="1.09701">
        <ele>147.088</ele>
        <time>2021-05-28T07:48:56Z</time>
      </trkpt>
      <trkpt lat="44.80979" lon="1.09744">
        <ele>147.491</ele>
        <time>2021-05-28T07:49:07Z</time>
      </trkpt>
      <trkpt lat="44.80959" lon="1.09759">
        <ele>149.044</ele>
        <time>2021-05-28T07:49:13Z</time>
      </trkpt>
      <trkpt lat="44.80922" lon="1.09777">
        <ele>152.867</ele>
        <time>2021-05-28T07:49:22Z</time>
      </trkpt>
      <trkpt lat="44.80871" lon="1.09828">
        <ele>158.425</ele>
        <time>2021-05-28T07:49:36Z</time>
      </trkpt>
      <trkpt lat="44.80848" lon="1.09845">
        <ele>160.375</ele>
        <time>2021-05-28T07:49:42Z</time>
      </trkpt>
      <trkpt lat="44.8083" lon="1.09862">
        <ele>161.313</ele>
        <time>2021-05-28T07:49:48Z</time>
      </trkpt>
      <trkpt lat="44.80808" lon="1.09874">
        <ele>162.68</ele>
        <time>2021-05-28T07:49:53Z</time>
      </trkpt>
      <trkpt lat="44.80744" lon="1.09897">
        <ele>165.215</ele>
        <time>2021-05-28T07:50:08Z</time>
      </trkpt>
      <trkpt lat="44.80653" lon="1.0991">
        <ele>169.599</ele>
        <time>2021-05-28T07:50:30Z</time>
      </trkpt>
      <trkpt lat="44.80624" lon="1.09923">
        <ele>172.142</ele>
        <time>2021-05-28T07:50:37Z</time>
      </trkpt>
      <trkpt lat="44.80599" lon="1.09929">
        <ele>175.079</ele>
        <time>2021-05-28T07:50:43Z</time>
      </trkpt>
      <trkpt lat="44.80586" lon="1.09936">
        <ele>176.303</ele>
        <time>2021-05-28T07:50:46Z</time>
      </trkpt>
      <trkpt lat="44.80574" lon="1.09936">
        <ele>177.912</ele>
        <time>2021-05-28T07:50:49Z</time>
      </trkpt>
      <trkpt lat="44.80419" lon="1.09961">
        <ele>186.684</ele>
        <time>2021-05-28T07:51:25Z</time>
      </trkpt>
      <trkpt lat="44.80378" lon="1.09962">
        <ele>190.541</ele>
        <time>2021-05-28T07:51:35Z</time>
      </trkpt>
      <trkpt lat="44.80323" lon="1.09958">
        <ele>196.343</ele>
        <time>2021-05-28T07:51:48Z</time>
      </trkpt>
      <trkpt lat="44.80268" lon="1.09949">
        <ele>202.152</ele>
        <time>2021-05-28T07:52:01Z</time>
      </trkpt>
      <trkpt lat="44.80253" lon="1.09953">
        <ele>204.325</ele>
        <time>2021-05-28T07:52:04Z</time>
      </trkpt>
      <trkpt lat="44.80232" lon="1.09963">
        <ele>208.256</ele>
        <time>2021-05-28T07:52:09Z</time>
      </trkpt>
      <trkpt lat="44.80186" lon="1.09975">
        <ele>217.139</ele>
        <time>2021-05-28T07:52:20Z</time>
      </trkpt>
      <trkpt lat="44.80151" lon="1.09969">
        <ele>222.224</ele>
        <time>2021-05-28T07:52:29Z</time>
      </trkpt>
      <trkpt lat="44.80128" lon="1.09962">
        <ele>224.838</ele>
        <time>2021-05-28T07:52:34Z</time>
      </trkpt>
      <trkpt lat="44.80102" lon="1.09961">
        <ele>227.497</ele>
        <time>2021-05-28T07:52:40Z</time>
      </trkpt>
      <trkpt lat="44.80082" lon="1.09968">
        <ele>230.09</ele>
        <time>2021-05-28T07:52:45Z</time>
      </trkpt>
      <trkpt lat="44.80064" lon="1.09986">
        <ele>232.505</ele>
        <time>2021-05-28T07:52:50Z</time>
      </trkpt>
      <trkpt lat="44.80083" lon="1.09972">
        <ele>230.403</ele>
        <time>2021-05-28T07:52:55Z</time>
      </trkpt>
      <trkpt lat="44.80099" lon="1.09965">
        <ele>228.226</ele>
        <time>2021-05-28T07:52:59Z</time>
      </trkpt>
      <trkpt lat="44.80127" lon="1.09968">
        <ele>225.786</ele>
        <time>2021-05-28T07:53:06Z</time>
      </trkpt>
      <trkpt lat="44.80172" lon="1.09979">
        <ele>220</ele>
        <time>2021-05-28T07:53:16Z</time>
      </trkpt>
      <trkpt lat="44.80123" lon="1.09966">
        <ele>226.14</ele>
        <time>2021-05-28T07:53:28Z</time>
      </trkpt>
      <trkpt lat="44.80105" lon="1.09963">
        <ele>227.439</ele>
        <time>2021-05-28T07:53:32Z</time>
      </trkpt>
      <trkpt lat="44.80089" lon="1.09965">
        <ele>229.15</ele>
        <time>2021-05-28T07:53:36Z</time>
      </trkpt>
      <trkpt lat="44.80066" lon="1.09977">
        <ele>231.37</ele>
        <time>2021-05-28T07:53:42Z</time>
      </trkpt>
      <trkpt lat="44.80008" lon="1.10035">
        <ele>234.562</ele>
        <time>2021-05-28T07:53:58Z</time>
      </trkpt>
      <trkpt lat="44.79976" lon="1.10097">
        <ele>235.336</ele>
        <time>2021-05-28T07:54:11Z</time>
      </trkpt>
      <trkpt lat="44.79939" lon="1.10132">
        <ele>232.544</ele>
        <time>2021-05-28T07:54:21Z</time>
      </trkpt>
      <trkpt lat="44.79923" lon="1.10152">
        <ele>232.233</ele>
        <time>2021-05-28T07:54:26Z</time>
      </trkpt>
      <trkpt lat="44.79907" lon="1.10253">
        <ele>222.535</ele>
        <time>2021-05-28T07:54:44Z</time>
      </trkpt>
      <trkpt lat="44.79894" lon="1.10294">
        <ele>217.015</ele>
        <time>2021-05-28T07:54:51Z</time>
      </trkpt>
      <trkpt lat="44.79886" lon="1.10312">
        <ele>215.855</ele>
        <time>2021-05-28T07:54:54Z</time>
      </trkpt>
      <trkpt lat="44.79868" lon="1.10347">
        <ele>213.915</ele>
        <time>2021-05-28T07:55:02Z</time>
      </trkpt>
      <trkpt lat="44.7986" lon="1.10356">
        <ele>213.88</ele>
        <time>2021-05-28T07:55:04Z</time>
      </trkpt>
      <trkpt lat="44.79845" lon="1.10368">
        <ele>214.28</ele>
        <time>2021-05-28T07:55:08Z</time>
      </trkpt>
      <trkpt lat="44.79772" lon="1.10406">
        <ele>209.302</ele>
        <time>2021-05-28T07:55:26Z</time>
      </trkpt>
      <trkpt lat="44.79734" lon="1.10406">
        <ele>207.093</ele>
        <time>2021-05-28T07:55:35Z</time>
      </trkpt>
      <trkpt lat="44.79708" lon="1.10414">
        <ele>204.654</ele>
        <time>2021-05-28T07:55:41Z</time>
      </trkpt>
      <trkpt lat="44.79665" lon="1.10423">
        <ele>203.49</ele>
        <time>2021-05-28T07:55:51Z</time>
      </trkpt>
      <trkpt lat="44.79639" lon="1.10422">
        <ele>204.078</ele>
        <time>2021-05-28T07:55:58Z</time>
      </trkpt>
      <trkpt lat="44.79606" lon="1.10413">
        <ele>205.245</ele>
        <time>2021-05-28T07:56:05Z</time>
      </trkpt>
      <trkpt lat="44.79581" lon="1.10414">
        <ele>205.973</ele>
        <time>2021-05-28T07:56:11Z</time>
      </trkpt>
      <trkpt lat="44.79552" lon="1.10422">
        <ele>206.958</ele>
        <time>2021-05-28T07:56:18Z</time>
      </trkpt>
      <trkpt lat="44.79524" lon="1.10447">
        <ele>207.708</ele>
        <time>2021-05-28T07:56:26Z</time>
      </trkpt>
      <trkpt lat="44.79529" lon="1.1047">
        <ele>207.222</ele>
        <time>2021-05-28T07:56:30Z</time>
      </trkpt>
      <trkpt lat="44.79545" lon="1.10508">
        <ele>209.743</ele>
        <time>2021-05-28T07:56:37Z</time>
      </trkpt>
      <trkpt lat="44.79559" lon="1.10532">
        <ele>213.287</ele>
        <time>2021-05-28T07:56:42Z</time>
      </trkpt>
      <trkpt lat="44.79581" lon="1.10594">
        <ele>217.903</ele>
        <time>2021-05-28T07:56:54Z</time>
      </trkpt>
      <trkpt lat="44.796" lon="1.10619">
        <ele>217.189</ele>
        <time>2021-05-28T07:57:00Z</time>
      </trkpt>
      <trkpt lat="44.79602" lon="1.10628">
        <ele>216.988</ele>
        <time>2021-05-28T07:57:01Z</time>
      </trkpt>
      <trkpt lat="44.796" lon="1.10685">
        <ele>218.587</ele>
        <time>2021-05-28T07:57:11Z</time>
      </trkpt>
      <trkpt lat="44.79606" lon="1.10724">
        <ele>218.639</ele>
        <time>2021-05-28T07:57:18Z</time>
      </trkpt>
      <trkpt lat="44.7962" lon="1.10764">
        <ele>219.176</ele>
        <time>2021-05-28T07:57:25Z</time>
      </trkpt>
      <trkpt lat="44.79635" lon="1.10783">
        <ele>218.641</ele>
        <time>2021-05-28T07:57:30Z</time>
      </trkpt>
      <trkpt lat="44.79685" lon="1.1082">
        <ele>214.785</ele>
        <time>2021-05-28T07:57:43Z</time>
      </trkpt>
      <trkpt lat="44.79764" lon="1.10993">
        <ele>198.401</ele>
        <time>2021-05-28T07:58:17Z</time>
      </trkpt>
      <trkpt lat="44.79795" lon="1.11038">
        <ele>193.613</ele>
        <time>2021-05-28T07:58:27Z</time>
      </trkpt>
      <trkpt lat="44.79856" lon="1.11098">
        <ele>184.992</ele>
        <time>2021-05-28T07:58:45Z</time>
      </trkpt>
      <trkpt lat="44.79861" lon="1.1111">
        <ele>184.46</ele>
        <time>2021-05-28T07:58:47Z</time>
      </trkpt>
      <trkpt lat="44.79855" lon="1.11176">
        <ele>181.437</ele>
        <time>2021-05-28T07:58:58Z</time>
      </trkpt>
      <trkpt lat="44.7986" lon="1.11242">
        <ele>175.334</ele>
        <time>2021-05-28T07:59:09Z</time>
      </trkpt>
      <trkpt lat="44.79861" lon="1.11294">
        <ele>172.841</ele>
        <time>2021-05-28T07:59:18Z</time>
      </trkpt>
      <trkpt lat="44.79866" lon="1.11312">
        <ele>171.77</ele>
        <time>2021-05-28T07:59:21Z</time>
      </trkpt>
      <trkpt lat="44.79872" lon="1.11321">
        <ele>171.154</ele>
        <time>2021-05-28T07:59:23Z</time>
      </trkpt>
      <trkpt lat="44.79885" lon="1.11333">
        <ele>170.286</ele>
        <time>2021-05-28T07:59:27Z</time>
      </trkpt>
      <trkpt lat="44.79888" lon="1.11342">
        <ele>169.79</ele>
        <time>2021-05-28T07:59:28Z</time>
      </trkpt>
      <trkpt lat="44.79864" lon="1.1148">
        <ele>168.883</ele>
        <time>2021-05-28T07:59:52Z</time>
      </trkpt>
      <trkpt lat="44.79878" lon="1.11525">
        <ele>167.496</ele>
        <time>2021-05-28T08:00:00Z</time>
      </trkpt>
      <trkpt lat="44.79886" lon="1.11538">
        <ele>166.654</ele>
        <time>2021-05-28T08:00:03Z</time>
      </trkpt>
      <trkpt lat="44.79906" lon="1.11595">
        <ele>165.31</ele>
        <time>2021-05-28T08:00:13Z</time>
      </trkpt>
      <trkpt lat="44.79908" lon="1.11635">
        <ele>165.641</ele>
        <time>2021-05-28T08:00:20Z</time>
      </trkpt>
      <trkpt lat="44.79899" lon="1.11663">
        <ele>165.787</ele>
        <time>2021-05-28T08:00:25Z</time>
      </trkpt>
      <trkpt lat="44.79852" lon="1.11753">
        <ele>165.499</ele>
        <time>2021-05-28T08:00:43Z</time>
      </trkpt>
      <trkpt lat="44.79848" lon="1.11786">
        <ele>167.197</ele>
        <time>2021-05-28T08:00:49Z</time>
      </trkpt>
      <trkpt lat="44.7985" lon="1.11865">
        <ele>169.576</ele>
        <time>2021-05-28T08:01:02Z</time>
      </trkpt>
      <trkpt lat="44.79847" lon="1.1189">
        <ele>170.905</ele>
        <time>2021-05-28T08:01:06Z</time>
      </trkpt>
      <trkpt lat="44.79841" lon="1.11919">
        <ele>172.475</ele>
        <time>2021-05-28T08:01:11Z</time>
      </trkpt>
      <trkpt lat="44.79832" lon="1.1194">
        <ele>173.885</ele>
        <time>2021-05-28T08:01:15Z</time>
      </trkpt>
      <trkpt lat="44.79826" lon="1.11966">
        <ele>175.654</ele>
        <time>2021-05-28T08:01:20Z</time>
      </trkpt>
      <trkpt lat="44.79816" lon="1.11999">
        <ele>177.639</ele>
        <time>2021-05-28T08:01:26Z</time>
      </trkpt>
      <trkpt lat="44.7981" lon="1.12011">
        <ele>178.969</ele>
        <time>2021-05-28T08:01:28Z</time>
      </trkpt>
      <trkpt lat="44.79797" lon="1.12057">
        <ele>182.41</ele>
        <time>2021-05-28T08:01:37Z</time>
      </trkpt>
      <trkpt lat="44.79796" lon="1.12073">
        <ele>183.108</ele>
        <time>2021-05-28T08:01:39Z</time>
      </trkpt>
      <trkpt lat="44.79802" lon="1.12102">
        <ele>183.85</ele>
        <time>2021-05-28T08:01:44Z</time>
      </trkpt>
      <trkpt lat="44.79779" lon="1.12135">
        <ele>187.785</ele>
        <time>2021-05-28T08:01:52Z</time>
      </trkpt>
      <trkpt lat="44.79754" lon="1.12186">
        <ele>196.867</ele>
        <time>2021-05-28T08:02:02Z</time>
      </trkpt>
      <trkpt lat="44.7974" lon="1.12201">
        <ele>201.671</ele>
        <time>2021-05-28T08:02:06Z</time>
      </trkpt>
      <trkpt lat="44.79732" lon="1.12226">
        <ele>203.497</ele>
        <time>2021-05-28T08:02:11Z</time>
      </trkpt>
      <trkpt lat="44.79713" lon="1.12259">
        <ele>207.884</ele>
        <time>2021-05-28T08:02:18Z</time>
      </trkpt>
      <trkpt lat="44.79693" lon="1.12277">
        <ele>211.737</ele>
        <time>2021-05-28T08:02:23Z</time>
      </trkpt>
      <trkpt lat="44.79691" lon="1.12286">
        <ele>211.517</ele>
        <time>2021-05-28T08:02:25Z</time>
      </trkpt>
      <trkpt lat="44.79683" lon="1.12294">
        <ele>212.824</ele>
        <time>2021-05-28T08:02:27Z</time>
      </trkpt>
      <trkpt lat="44.79673" lon="1.1231">
        <ele>214.133</ele>
        <time>2021-05-28T08:02:31Z</time>
      </trkpt>
      <trkpt lat="44.79635" lon="1.12341">
        <ele>221.313</ele>
        <time>2021-05-28T08:02:41Z</time>
      </trkpt>
      <trkpt lat="44.79625" lon="1.12363">
        <ele>222.654</ele>
        <time>2021-05-28T08:02:45Z</time>
      </trkpt>
      <trkpt lat="44.79603" lon="1.12384">
        <ele>226.992</ele>
        <time>2021-05-28T08:02:52Z</time>
      </trkpt>
      <trkpt lat="44.79604" lon="1.12418">
        <ele>223.931</ele>
        <time>2021-05-28T08:02:57Z</time>
      </trkpt>
      <trkpt lat="44.79583" lon="1.12478">
        <ele>222.353</ele>
        <time>2021-05-28T08:03:08Z</time>
      </trkpt>
      <trkpt lat="44.79547" lon="1.12546">
        <ele>219.441</ele>
        <time>2021-05-28T08:03:22Z</time>
      </trkpt>
      <trkpt lat="44.79528" lon="1.1257">
        <ele>218.902</ele>
        <time>2021-05-28T08:03:28Z</time>
      </trkpt>
      <trkpt lat="44.79515" lon="1.12582">
        <ele>218.439</ele>
        <time>2021-05-28T08:03:32Z</time>
      </trkpt>
      <trkpt lat="44.79509" lon="1.12608">
        <ele>215.033</ele>
        <time>2021-05-28T08:03:36Z</time>
      </trkpt>
      <trkpt lat="44.79493" lon="1.12645">
        <ele>211.835</ele>
        <time>2021-05-28T08:03:44Z</time>
      </trkpt>
      <trkpt lat="44.79485" lon="1.12658">
        <ele>211.687</ele>
        <time>2021-05-28T08:03:46Z</time>
      </trkpt>
      <trkpt lat="44.79474" lon="1.12666">
        <ele>211.989</ele>
        <time>2021-05-28T08:03:49Z</time>
      </trkpt>
      <trkpt lat="44.79467" lon="1.12663">
        <ele>212.29</ele>
        <time>2021-05-28T08:03:51Z</time>
      </trkpt>
      <trkpt lat="44.79464" lon="1.12666">
        <ele>212.098</ele>
        <time>2021-05-28T08:03:52Z</time>
      </trkpt>
      <trkpt lat="44.79481" lon="1.12726">
        <ele>209.034</ele>
        <time>2021-05-28T08:04:03Z</time>
      </trkpt>
      <trkpt lat="44.79492" lon="1.12755">
        <ele>208.031</ele>
        <time>2021-05-28T08:04:08Z</time>
      </trkpt>
      <trkpt lat="44.79539" lon="1.12839">
        <ele>213.292</ele>
        <time>2021-05-28T08:04:26Z</time>
      </trkpt>
      <trkpt lat="44.79559" lon="1.12862">
        <ele>215.566</ele>
        <time>2021-05-28T08:04:32Z</time>
      </trkpt>
      <trkpt lat="44.79605" lon="1.12926">
        <ele>221.743</ele>
        <time>2021-05-28T08:04:47Z</time>
      </trkpt>
      <trkpt lat="44.79629" lon="1.1295">
        <ele>224.95</ele>
        <time>2021-05-28T08:04:54Z</time>
      </trkpt>
      <trkpt lat="44.79646" lon="1.12958">
        <ele>225.991</ele>
        <time>2021-05-28T08:04:58Z</time>
      </trkpt>
      <trkpt lat="44.79666" lon="1.12965">
        <ele>226.993</ele>
        <time>2021-05-28T08:05:03Z</time>
      </trkpt>
      <trkpt lat="44.7969" lon="1.12964">
        <ele>227.819</ele>
        <time>2021-05-28T08:05:08Z</time>
      </trkpt>
      <trkpt lat="44.79729" lon="1.12978">
        <ele>229.37</ele>
        <time>2021-05-28T08:05:18Z</time>
      </trkpt>
      <trkpt lat="44.79802" lon="1.12961">
        <ele>229.283</ele>
        <time>2021-05-28T08:05:35Z</time>
      </trkpt>
      <trkpt lat="44.79863" lon="1.12936">
        <ele>226.409</ele>
        <time>2021-05-28T08:05:50Z</time>
      </trkpt>
      <trkpt lat="44.79886" lon="1.12908">
        <ele>223.907</ele>
        <time>2021-05-28T08:05:57Z</time>
      </trkpt>
      <trkpt lat="44.79933" lon="1.12872">
        <ele>221.577</ele>
        <time>2021-05-28T08:06:10Z</time>
      </trkpt>
      <trkpt lat="44.79958" lon="1.12862">
        <ele>220.581</ele>
        <time>2021-05-28T08:06:16Z</time>
      </trkpt>
      <trkpt lat="44.79967" lon="1.12863">
        <ele>220.675</ele>
        <time>2021-05-28T08:06:18Z</time>
      </trkpt>
      <trkpt lat="44.79989" lon="1.12879">
        <ele>219.786</ele>
        <time>2021-05-28T08:06:23Z</time>
      </trkpt>
      <trkpt lat="44.80006" lon="1.12884">
        <ele>218.164</ele>
        <time>2021-05-28T08:06:28Z</time>
      </trkpt>
      <trkpt lat="44.80034" lon="1.12903">
        <ele>214.156</ele>
        <time>2021-05-28T08:06:35Z</time>
      </trkpt>
      <trkpt lat="44.80046" lon="1.12915">
        <ele>211.997</ele>
        <time>2021-05-28T08:06:38Z</time>
      </trkpt>
      <trkpt lat="44.80072" lon="1.12927">
        <ele>208.018</ele>
        <time>2021-05-28T08:06:45Z</time>
      </trkpt>
      <trkpt lat="44.80098" lon="1.12927">
        <ele>204.81</ele>
        <time>2021-05-28T08:06:51Z</time>
      </trkpt>
      <trkpt lat="44.80129" lon="1.12916">
        <ele>201.218</ele>
        <time>2021-05-28T08:06:58Z</time>
      </trkpt>
      <trkpt lat="44.80169" lon="1.12935">
        <ele>197.048</ele>
        <time>2021-05-28T08:07:08Z</time>
      </trkpt>
      <trkpt lat="44.80181" lon="1.12946">
        <ele>196.382</ele>
        <time>2021-05-28T08:07:11Z</time>
      </trkpt>
      <trkpt lat="44.80195" lon="1.12951">
        <ele>195.55</ele>
        <time>2021-05-28T08:07:15Z</time>
      </trkpt>
      <trkpt lat="44.80212" lon="1.12948">
        <ele>194.672</ele>
        <time>2021-05-28T08:07:19Z</time>
      </trkpt>
      <trkpt lat="44.80234" lon="1.12957">
        <ele>194.018</ele>
        <time>2021-05-28T08:07:24Z</time>
      </trkpt>
      <trkpt lat="44.80247" lon="1.12954">
        <ele>193.462</ele>
        <time>2021-05-28T08:07:27Z</time>
      </trkpt>
      <trkpt lat="44.8026" lon="1.12945">
        <ele>193.16</ele>
        <time>2021-05-28T08:07:31Z</time>
      </trkpt>
      <trkpt lat="44.8028" lon="1.12941">
        <ele>193.048</ele>
        <time>2021-05-28T08:07:35Z</time>
      </trkpt>
      <trkpt lat="44.80342" lon="1.12976">
        <ele>193.585</ele>
        <time>2021-05-28T08:07:51Z</time>
      </trkpt>
      <trkpt lat="44.80385" lon="1.13049">
        <ele>189.667</ele>
        <time>2021-05-28T08:08:07Z</time>
      </trkpt>
      <trkpt lat="44.80382" lon="1.13064">
        <ele>188.866</ele>
        <time>2021-05-28T08:08:09Z</time>
      </trkpt>
      <trkpt lat="44.80366" lon="1.13091">
        <ele>186.8</ele>
        <time>2021-05-28T08:08:15Z</time>
      </trkpt>
      <trkpt lat="44.80271" lon="1.13192">
        <ele>182.515</ele>
        <time>2021-05-28T08:08:43Z</time>
      </trkpt>
      <trkpt lat="44.80267" lon="1.13206">
        <ele>182.828</ele>
        <time>2021-05-28T08:08:45Z</time>
      </trkpt>
      <trkpt lat="44.80266" lon="1.13221">
        <ele>182.982</ele>
        <time>2021-05-28T08:08:48Z</time>
      </trkpt>
      <trkpt lat="44.80269" lon="1.13234">
        <ele>182.75</ele>
        <time>2021-05-28T08:08:50Z</time>
      </trkpt>
      <trkpt lat="44.80276" lon="1.13246">
        <ele>182.051</ele>
        <time>2021-05-28T08:08:53Z</time>
      </trkpt>
      <trkpt lat="44.80308" lon="1.1328">
        <ele>180.047</ele>
        <time>2021-05-28T08:09:02Z</time>
      </trkpt>
      <trkpt lat="44.80345" lon="1.13328">
        <ele>177.836</ele>
        <time>2021-05-28T08:09:14Z</time>
      </trkpt>
      <trkpt lat="44.80394" lon="1.13399">
        <ele>175.891</ele>
        <time>2021-05-28T08:09:30Z</time>
      </trkpt>
      <trkpt lat="44.80399" lon="1.13415">
        <ele>176.835</ele>
        <time>2021-05-28T08:09:33Z</time>
      </trkpt>
      <trkpt lat="44.80395" lon="1.13427">
        <ele>177.142</ele>
        <time>2021-05-28T08:09:35Z</time>
      </trkpt>
      <trkpt lat="44.80337" lon="1.13486">
        <ele>181.786</ele>
        <time>2021-05-28T08:09:52Z</time>
      </trkpt>
      <trkpt lat="44.80305" lon="1.13535">
        <ele>186.59</ele>
        <time>2021-05-28T08:10:03Z</time>
      </trkpt>
      <trkpt lat="44.8028" lon="1.13556">
        <ele>189.366</ele>
        <time>2021-05-28T08:10:10Z</time>
      </trkpt>
      <trkpt lat="44.80248" lon="1.13569">
        <ele>192.534</ele>
        <time>2021-05-28T08:10:18Z</time>
      </trkpt>
      <trkpt lat="44.80245" lon="1.13569">
        <ele>192.804</ele>
        <time>2021-05-28T08:10:18Z</time>
      </trkpt>
      <trkpt lat="44.80241" lon="1.13562">
        <ele>193.586</ele>
        <time>2021-05-28T08:10:20Z</time>
      </trkpt>
      <trkpt lat="44.80235" lon="1.13527">
        <ele>196.451</ele>
        <time>2021-05-28T08:10:26Z</time>
      </trkpt>
      <trkpt lat="44.80227" lon="1.13442">
        <ele>201.722</ele>
        <time>2021-05-28T08:10:40Z</time>
      </trkpt>
      <trkpt lat="44.80227" lon="1.13421">
        <ele>201.176</ele>
        <time>2021-05-28T08:10:43Z</time>
      </trkpt>
      <trkpt lat="44.80221" lon="1.13416">
        <ele>201.918</ele>
        <time>2021-05-28T08:10:45Z</time>
      </trkpt>
      <trkpt lat="44.80186" lon="1.13434">
        <ele>207.532</ele>
        <time>2021-05-28T08:10:54Z</time>
      </trkpt>
      <trkpt lat="44.80164" lon="1.13438">
        <ele>210.952</ele>
        <time>2021-05-28T08:10:59Z</time>
      </trkpt>
      <trkpt lat="44.80165" lon="1.13441">
        <ele>211.032</ele>
        <time>2021-05-28T08:10:59Z</time>
      </trkpt>
      <trkpt lat="44.80148" lon="1.13441">
        <ele>212.986</ele>
        <time>2021-05-28T08:11:03Z</time>
      </trkpt>
      <trkpt lat="44.80122" lon="1.13463">
        <ele>216.573</ele>
        <time>2021-05-28T08:11:10Z</time>
      </trkpt>
      <trkpt lat="44.80118" lon="1.13473">
        <ele>217.234</ele>
        <time>2021-05-28T08:11:12Z</time>
      </trkpt>
      <trkpt lat="44.80092" lon="1.13506">
        <ele>220.066</ele>
        <time>2021-05-28T08:11:21Z</time>
      </trkpt>
      <trkpt lat="44.80073" lon="1.13536">
        <ele>221.171</ele>
        <time>2021-05-28T08:11:27Z</time>
      </trkpt>
      <trkpt lat="44.80074" lon="1.13552">
        <ele>220.522</ele>
        <time>2021-05-28T08:11:30Z</time>
      </trkpt>
      <trkpt lat="44.80051" lon="1.13557">
        <ele>222.433</ele>
        <time>2021-05-28T08:11:35Z</time>
      </trkpt>
      <trkpt lat="44.8004" lon="1.13565">
        <ele>223.498</ele>
        <time>2021-05-28T08:11:38Z</time>
      </trkpt>
      <trkpt lat="44.79962" lon="1.1366">
        <ele>229.191</ele>
        <time>2021-05-28T08:12:02Z</time>
      </trkpt>
      <trkpt lat="44.79951" lon="1.13677">
        <ele>229.162</ele>
        <time>2021-05-28T08:12:06Z</time>
      </trkpt>
      <trkpt lat="44.79932" lon="1.13695">
        <ele>229.753</ele>
        <time>2021-05-28T08:12:11Z</time>
      </trkpt>
      <trkpt lat="44.79917" lon="1.13705">
        <ele>230.482</ele>
        <time>2021-05-28T08:12:15Z</time>
      </trkpt>
      <trkpt lat="44.79909" lon="1.13719">
        <ele>230.748</ele>
        <time>2021-05-28T08:12:18Z</time>
      </trkpt>
      <trkpt lat="44.79896" lon="1.1376">
        <ele>231.87</ele>
        <time>2021-05-28T08:12:26Z</time>
      </trkpt>
      <trkpt lat="44.79866" lon="1.13783">
        <ele>234.131</ele>
        <time>2021-05-28T08:12:34Z</time>
      </trkpt>
      <trkpt lat="44.79848" lon="1.13791">
        <ele>235.203</ele>
        <time>2021-05-28T08:12:38Z</time>
      </trkpt>
      <trkpt lat="44.79826" lon="1.13795">
        <ele>233.758</ele>
        <time>2021-05-28T08:12:43Z</time>
      </trkpt>
      <trkpt lat="44.79804" lon="1.13808">
        <ele>232.559</ele>
        <time>2021-05-28T08:12:49Z</time>
      </trkpt>
      <trkpt lat="44.79793" lon="1.13821">
        <ele>231.414</ele>
        <time>2021-05-28T08:12:52Z</time>
      </trkpt>
      <trkpt lat="44.79778" lon="1.13848">
        <ele>230.189</ele>
        <time>2021-05-28T08:12:58Z</time>
      </trkpt>
      <trkpt lat="44.79752" lon="1.13914">
        <ele>225.8</ele>
        <time>2021-05-28T08:13:10Z</time>
      </trkpt>
      <trkpt lat="44.79737" lon="1.13969">
        <ele>222.272</ele>
        <time>2021-05-28T08:13:20Z</time>
      </trkpt>
      <trkpt lat="44.79724" lon="1.13995">
        <ele>218.569</ele>
        <time>2021-05-28T08:13:25Z</time>
      </trkpt>
      <trkpt lat="44.79709" lon="1.14044">
        <ele>214.377</ele>
        <time>2021-05-28T08:13:34Z</time>
      </trkpt>
      <trkpt lat="44.79695" lon="1.14101">
        <ele>209.342</ele>
        <time>2021-05-28T08:13:44Z</time>
      </trkpt>
      <trkpt lat="44.79689" lon="1.1416">
        <ele>206.413</ele>
        <time>2021-05-28T08:13:54Z</time>
      </trkpt>
      <trkpt lat="44.79688" lon="1.14203">
        <ele>205.375</ele>
        <time>2021-05-28T08:14:01Z</time>
      </trkpt>
      <trkpt lat="44.79692" lon="1.14203">
        <ele>206.336</ele>
        <time>2021-05-28T08:14:02Z</time>
      </trkpt>
      <trkpt lat="44.79695" lon="1.14213">
        <ele>206.892</ele>
        <time>2021-05-28T08:14:04Z</time>
      </trkpt>
      <trkpt lat="44.79703" lon="1.14217">
        <ele>208.742</ele>
        <time>2021-05-28T08:14:06Z</time>
      </trkpt>
      <trkpt lat="44.79708" lon="1.14224">
        <ele>209.692</ele>
        <time>2021-05-28T08:14:08Z</time>
      </trkpt>
      <trkpt lat="44.79721" lon="1.14234">
        <ele>212.165</ele>
        <time>2021-05-28T08:14:11Z</time>
      </trkpt>
      <trkpt lat="44.79741" lon="1.14246">
        <ele>214.636</ele>
        <time>2021-05-28T08:14:16Z</time>
      </trkpt>
      <trkpt lat="44.79769" lon="1.14256">
        <ele>217.333</ele>
        <time>2021-05-28T08:14:23Z</time>
      </trkpt>
      <trkpt lat="44.798" lon="1.14257">
        <ele>218.039</ele>
        <time>2021-05-28T08:14:30Z</time>
      </trkpt>
      <trkpt lat="44.7982" lon="1.1425">
        <ele>218.745</ele>
        <time>2021-05-28T08:14:35Z</time>
      </trkpt>
      <trkpt lat="44.79844" lon="1.1425">
        <ele>217.61</ele>
        <time>2021-05-28T08:14:41Z</time>
      </trkpt>
      <trkpt lat="44.79876" lon="1.14246">
        <ele>216.605</ele>
        <time>2021-05-28T08:14:48Z</time>
      </trkpt>
      <trkpt lat="44.79894" lon="1.14241">
        <ele>216.39</ele>
        <time>2021-05-28T08:14:52Z</time>
      </trkpt>
      <trkpt lat="44.79931" lon="1.14237">
        <ele>215.443</ele>
        <time>2021-05-28T08:15:01Z</time>
      </trkpt>
      <trkpt lat="44.79944" lon="1.1423">
        <ele>215.741</ele>
        <time>2021-05-28T08:15:04Z</time>
      </trkpt>
      <trkpt lat="44.79949" lon="1.14205">
        <ele>217.943</ele>
        <time>2021-05-28T08:15:09Z</time>
      </trkpt>
      <trkpt lat="44.79953" lon="1.14196">
        <ele>218.226</ele>
        <time>2021-05-28T08:15:10Z</time>
      </trkpt>
      <trkpt lat="44.79992" lon="1.14136">
        <ele>217.22</ele>
        <time>2021-05-28T08:15:24Z</time>
      </trkpt>
      <trkpt lat="44.8001" lon="1.14098">
        <ele>216.526</ele>
        <time>2021-05-28T08:15:31Z</time>
      </trkpt>
      <trkpt lat="44.80015" lon="1.14096">
        <ele>215.799</ele>
        <time>2021-05-28T08:15:33Z</time>
      </trkpt>
      <trkpt lat="44.80048" lon="1.14133">
        <ele>210.878</ele>
        <time>2021-05-28T08:15:42Z</time>
      </trkpt>
      <trkpt lat="44.80064" lon="1.14156">
        <ele>209.293</ele>
        <time>2021-05-28T08:15:48Z</time>
      </trkpt>
      <trkpt lat="44.80096" lon="1.14178">
        <ele>206.898</ele>
        <time>2021-05-28T08:15:56Z</time>
      </trkpt>
      <trkpt lat="44.80134" lon="1.14216">
        <ele>204.63</ele>
        <time>2021-05-28T08:16:07Z</time>
      </trkpt>
      <trkpt lat="44.80146" lon="1.14219">
        <ele>204.169</ele>
        <time>2021-05-28T08:16:10Z</time>
      </trkpt>
      <trkpt lat="44.80177" lon="1.14214">
        <ele>202.97</ele>
        <time>2021-05-28T08:16:17Z</time>
      </trkpt>
      <trkpt lat="44.80201" lon="1.14229">
        <ele>202.434</ele>
        <time>2021-05-28T08:16:23Z</time>
      </trkpt>
      <trkpt lat="44.80216" lon="1.14235">
        <ele>201.97</ele>
        <time>2021-05-28T08:16:27Z</time>
      </trkpt>
      <trkpt lat="44.8024" lon="1.14253">
        <ele>201.014</ele>
        <time>2021-05-28T08:16:33Z</time>
      </trkpt>
      <trkpt lat="44.80245" lon="1.14262">
        <ele>200.721</ele>
        <time>2021-05-28T08:16:35Z</time>
      </trkpt>
      <trkpt lat="44.8025" lon="1.14282">
        <ele>200.47</ele>
        <time>2021-05-28T08:16:39Z</time>
      </trkpt>
      <trkpt lat="44.80249" lon="1.14297">
        <ele>200.52</ele>
        <time>2021-05-28T08:16:41Z</time>
      </trkpt>
      <trkpt lat="44.80242" lon="1.14327">
        <ele>200.845</ele>
        <time>2021-05-28T08:16:46Z</time>
      </trkpt>
      <trkpt lat="44.80244" lon="1.14332">
        <ele>200.687</ele>
        <time>2021-05-28T08:16:47Z</time>
      </trkpt>
      <trkpt lat="44.80242" lon="1.14385">
        <ele>199.495</ele>
        <time>2021-05-28T08:16:56Z</time>
      </trkpt>
      <trkpt lat="44.80247" lon="1.14432">
        <ele>197.959</ele>
        <time>2021-05-28T08:17:04Z</time>
      </trkpt>
      <trkpt lat="44.80255" lon="1.14466">
        <ele>196.997</ele>
        <time>2021-05-28T08:17:10Z</time>
      </trkpt>
      <trkpt lat="44.80269" lon="1.14507">
        <ele>196.399</ele>
        <time>2021-05-28T08:17:18Z</time>
      </trkpt>
      <trkpt lat="44.80273" lon="1.14531">
        <ele>196.524</ele>
        <time>2021-05-28T08:17:22Z</time>
      </trkpt>
      <trkpt lat="44.80272" lon="1.14564">
        <ele>196.648</ele>
        <time>2021-05-28T08:17:27Z</time>
      </trkpt>
      <trkpt lat="44.80278" lon="1.1462">
        <ele>196.804</ele>
        <time>2021-05-28T08:17:36Z</time>
      </trkpt>
      <trkpt lat="44.80274" lon="1.14725">
        <ele>190.814</ele>
        <time>2021-05-28T08:17:54Z</time>
      </trkpt>
      <trkpt lat="44.80287" lon="1.14782">
        <ele>186.091</ele>
        <time>2021-05-28T08:18:04Z</time>
      </trkpt>
      <trkpt lat="44.80289" lon="1.14807">
        <ele>185.359</ele>
        <time>2021-05-28T08:18:08Z</time>
      </trkpt>
      <trkpt lat="44.80286" lon="1.14828">
        <ele>184.495</ele>
        <time>2021-05-28T08:18:12Z</time>
      </trkpt>
      <trkpt lat="44.80279" lon="1.14836">
        <ele>183.976</ele>
        <time>2021-05-28T08:18:14Z</time>
      </trkpt>
      <trkpt lat="44.80279" lon="1.1484">
        <ele>184.236</ele>
        <time>2021-05-28T08:18:14Z</time>
      </trkpt>
      <trkpt lat="44.80308" lon="1.14845">
        <ele>187.008</ele>
        <time>2021-05-28T08:18:21Z</time>
      </trkpt>
      <trkpt lat="44.80314" lon="1.14848">
        <ele>188.046</ele>
        <time>2021-05-28T08:18:23Z</time>
      </trkpt>
      <trkpt lat="44.80326" lon="1.14847">
        <ele>189.954</ele>
        <time>2021-05-28T08:18:25Z</time>
      </trkpt>
      <trkpt lat="44.80341" lon="1.14842">
        <ele>191.837</ele>
        <time>2021-05-28T08:18:29Z</time>
      </trkpt>
      <trkpt lat="44.80404" lon="1.14791">
        <ele>197.844</ele>
        <time>2021-05-28T08:18:46Z</time>
      </trkpt>
      <trkpt lat="44.80445" lon="1.14742">
        <ele>199.559</ele>
        <time>2021-05-28T08:18:59Z</time>
      </trkpt>
      <trkpt lat="44.80465" lon="1.14712">
        <ele>199.699</ele>
        <time>2021-05-28T08:19:05Z</time>
      </trkpt>
      <trkpt lat="44.80495" lon="1.14685">
        <ele>202.144</ele>
        <time>2021-05-28T08:19:14Z</time>
      </trkpt>
      <trkpt lat="44.80516" lon="1.14659">
        <ele>204.436</ele>
        <time>2021-05-28T08:19:20Z</time>
      </trkpt>
      <trkpt lat="44.80544" lon="1.14613">
        <ele>208.413</ele>
        <time>2021-05-28T08:19:30Z</time>
      </trkpt>
      <trkpt lat="44.80569" lon="1.1459">
        <ele>211.388</ele>
        <time>2021-05-28T08:19:37Z</time>
      </trkpt>
      <trkpt lat="44.80614" lon="1.14562">
        <ele>214.685</ele>
        <time>2021-05-28T08:19:49Z</time>
      </trkpt>
      <trkpt lat="44.80675" lon="1.14538">
        <ele>217.727</ele>
        <time>2021-05-28T08:20:03Z</time>
      </trkpt>
      <trkpt lat="44.807" lon="1.14525">
        <ele>217.977</ele>
        <time>2021-05-28T08:20:10Z</time>
      </trkpt>
      <trkpt lat="44.80715" lon="1.14523">
        <ele>218.061</ele>
        <time>2021-05-28T08:20:13Z</time>
      </trkpt>
      <trkpt lat="44.80742" lon="1.14507">
        <ele>215.713</ele>
        <time>2021-05-28T08:20:20Z</time>
      </trkpt>
      <trkpt lat="44.80746" lon="1.14498">
        <ele>215.56</ele>
        <time>2021-05-28T08:20:22Z</time>
      </trkpt>
      <trkpt lat="44.8074" lon="1.14479">
        <ele>216.207</ele>
        <time>2021-05-28T08:20:25Z</time>
      </trkpt>
      <trkpt lat="44.80712" lon="1.14417">
        <ele>220.967</ele>
        <time>2021-05-28T08:20:37Z</time>
      </trkpt>
      <trkpt lat="44.80696" lon="1.14371">
        <ele>221.373</ele>
        <time>2021-05-28T08:20:46Z</time>
      </trkpt>
      <trkpt lat="44.80686" lon="1.14331">
        <ele>220.915</ele>
        <time>2021-05-28T08:20:53Z</time>
      </trkpt>
      <trkpt lat="44.80668" lon="1.1422">
        <ele>218.097</ele>
        <time>2021-05-28T08:21:12Z</time>
      </trkpt>
      <trkpt lat="44.8067" lon="1.14207">
        <ele>217.387</ele>
        <time>2021-05-28T08:21:14Z</time>
      </trkpt>
      <trkpt lat="44.80673" lon="1.14203">
        <ele>217.064</ele>
        <time>2021-05-28T08:21:15Z</time>
      </trkpt>
      <trkpt lat="44.80694" lon="1.14195">
        <ele>215.771</ele>
        <time>2021-05-28T08:21:20Z</time>
      </trkpt>
      <trkpt lat="44.80696" lon="1.14191">
        <ele>215.521</ele>
        <time>2021-05-28T08:21:21Z</time>
      </trkpt>
      <trkpt lat="44.80699" lon="1.14181">
        <ele>215.072</ele>
        <time>2021-05-28T08:21:23Z</time>
      </trkpt>
      <trkpt lat="44.807" lon="1.1414">
        <ele>213.71</ele>
        <time>2021-05-28T08:21:29Z</time>
      </trkpt>
      <trkpt lat="44.80704" lon="1.14125">
        <ele>213.273</ele>
        <time>2021-05-28T08:21:32Z</time>
      </trkpt>
      <trkpt lat="44.80711" lon="1.14127">
        <ele>212.788</ele>
        <time>2021-05-28T08:21:34Z</time>
      </trkpt>
      <trkpt lat="44.80742" lon="1.14149">
        <ele>209.245</ele>
        <time>2021-05-28T08:21:42Z</time>
      </trkpt>
      <trkpt lat="44.80777" lon="1.1416">
        <ele>204.42</ele>
        <time>2021-05-28T08:21:50Z</time>
      </trkpt>
      <trkpt lat="44.80794" lon="1.14169">
        <ele>201.757</ele>
        <time>2021-05-28T08:21:55Z</time>
      </trkpt>
      <trkpt lat="44.80831" lon="1.14198">
        <ele>198.698</ele>
        <time>2021-05-28T08:22:04Z</time>
      </trkpt>
      <trkpt lat="44.8086" lon="1.14205">
        <ele>198.273</ele>
        <time>2021-05-28T08:22:11Z</time>
      </trkpt>
      <trkpt lat="44.80892" lon="1.14219">
        <ele>197.52</ele>
        <time>2021-05-28T08:22:19Z</time>
      </trkpt>
      <trkpt lat="44.80953" lon="1.14275">
        <ele>185.335</ele>
        <time>2021-05-28T08:22:36Z</time>
      </trkpt>
      <trkpt lat="44.80984" lon="1.143">
        <ele>179.42</ele>
        <time>2021-05-28T08:22:44Z</time>
      </trkpt>
      <trkpt lat="44.81051" lon="1.14363">
        <ele>172.893</ele>
        <time>2021-05-28T08:23:03Z</time>
      </trkpt>
      <trkpt lat="44.81066" lon="1.14371">
        <ele>172.193</ele>
        <time>2021-05-28T08:23:07Z</time>
      </trkpt>
      <trkpt lat="44.81083" lon="1.14371">
        <ele>171.216</ele>
        <time>2021-05-28T08:23:11Z</time>
      </trkpt>
      <trkpt lat="44.81123" lon="1.1436">
        <ele>168.086</ele>
        <time>2021-05-28T08:23:20Z</time>
      </trkpt>
      <trkpt lat="44.81188" lon="1.14323">
        <ele>159.854</ele>
        <time>2021-05-28T08:23:37Z</time>
      </trkpt>
      <trkpt lat="44.81228" lon="1.14313">
        <ele>155.528</ele>
        <time>2021-05-28T08:23:46Z</time>
      </trkpt>
      <trkpt lat="44.81253" lon="1.14312">
        <ele>153.211</ele>
        <time>2021-05-28T08:23:52Z</time>
      </trkpt>
      <trkpt lat="44.81294" lon="1.14318">
        <ele>150.122</ele>
        <time>2021-05-28T08:24:02Z</time>
      </trkpt>
      <trkpt lat="44.8131" lon="1.14322">
        <ele>149.519</ele>
        <time>2021-05-28T08:24:06Z</time>
      </trkpt>
      <trkpt lat="44.81328" lon="1.1433">
        <ele>148.355</ele>
        <time>2021-05-28T08:24:10Z</time>
      </trkpt>
      <trkpt lat="44.81343" lon="1.14342">
        <ele>146.891</ele>
        <time>2021-05-28T08:24:14Z</time>
      </trkpt>
      <trkpt lat="44.81373" lon="1.14374">
        <ele>147.91</ele>
        <time>2021-05-28T08:24:23Z</time>
      </trkpt>
      <trkpt lat="44.81377" lon="1.1438">
        <ele>148.05</ele>
        <time>2021-05-28T08:24:24Z</time>
      </trkpt>
      <trkpt lat="44.81379" lon="1.14396">
        <ele>147.275</ele>
        <time>2021-05-28T08:24:27Z</time>
      </trkpt>
      <trkpt lat="44.81377" lon="1.14451">
        <ele>143.842</ele>
        <time>2021-05-28T08:24:36Z</time>
      </trkpt>
      <trkpt lat="44.81373" lon="1.14471">
        <ele>141.961</ele>
        <time>2021-05-28T08:24:39Z</time>
      </trkpt>
      <trkpt lat="44.81369" lon="1.14479">
        <ele>140.415</ele>
        <time>2021-05-28T08:24:41Z</time>
      </trkpt>
      <trkpt lat="44.81359" lon="1.14486">
        <ele>137.098</ele>
        <time>2021-05-28T08:24:44Z</time>
      </trkpt>
      <trkpt lat="44.81344" lon="1.14488">
        <ele>132.553</ele>
        <time>2021-05-28T08:24:47Z</time>
      </trkpt>
      <trkpt lat="44.8133" lon="1.14502">
        <ele>133.279</ele>
        <time>2021-05-28T08:24:51Z</time>
      </trkpt>
      <trkpt lat="44.81322" lon="1.14525">
        <ele>132.574</ele>
        <time>2021-05-28T08:24:55Z</time>
      </trkpt>
      <trkpt lat="44.81306" lon="1.14595">
        <ele>127.396</ele>
        <time>2021-05-28T08:25:08Z</time>
      </trkpt>
      <trkpt lat="44.81302" lon="1.14666">
        <ele>119.726</ele>
        <time>2021-05-28T08:25:19Z</time>
      </trkpt>
      <trkpt lat="44.81304" lon="1.14798">
        <ele>112.693</ele>
        <time>2021-05-28T08:25:41Z</time>
      </trkpt>
      <trkpt lat="44.81309" lon="1.14825">
        <ele>110.379</ele>
        <time>2021-05-28T08:25:46Z</time>
      </trkpt>
      <trkpt lat="44.81328" lon="1.14881">
        <ele>102.933</ele>
        <time>2021-05-28T08:25:56Z</time>
      </trkpt>
      <trkpt lat="44.81316" lon="1.14947">
        <ele>105.686</ele>
        <time>2021-05-28T08:26:07Z</time>
      </trkpt>
      <trkpt lat="44.81311" lon="1.15026">
        <ele>105.934</ele>
        <time>2021-05-28T08:26:21Z</time>
      </trkpt>
      <trkpt lat="44.81307" lon="1.15037">
        <ele>107.045</ele>
        <time>2021-05-28T08:26:23Z</time>
      </trkpt>
      <trkpt lat="44.81307" lon="1.15051">
        <ele>106.171</ele>
        <time>2021-05-28T08:26:25Z</time>
      </trkpt>
      <trkpt lat="44.81301" lon="1.15066">
        <ele>107.666</ele>
        <time>2021-05-28T08:26:28Z</time>
      </trkpt>
      <trkpt lat="44.81289" lon="1.15073">
        <ele>110.478</ele>
        <time>2021-05-28T08:26:31Z</time>
      </trkpt>
      <trkpt lat="44.81256" lon="1.15074">
        <ele>123.103</ele>
        <time>2021-05-28T08:26:39Z</time>
      </trkpt>
      <trkpt lat="44.81225" lon="1.15084">
        <ele>131.173</ele>
        <time>2021-05-28T08:26:46Z</time>
      </trkpt>
      <trkpt lat="44.81206" lon="1.15087">
        <ele>136.075</ele>
        <time>2021-05-28T08:26:50Z</time>
      </trkpt>
      <trkpt lat="44.8119" lon="1.15097">
        <ele>135.975</ele>
        <time>2021-05-28T08:26:55Z</time>
      </trkpt>
      <trkpt lat="44.81186" lon="1.1509">
        <ele>139.535</ele>
        <time>2021-05-28T08:26:56Z</time>
      </trkpt>
      <trkpt lat="44.81167" lon="1.15081">
        <ele>147.267</ele>
        <time>2021-05-28T08:27:01Z</time>
      </trkpt>
      <trkpt lat="44.81101" lon="1.15075">
        <ele>162.583</ele>
        <time>2021-05-28T08:27:16Z</time>
      </trkpt>
      <trkpt lat="44.81076" lon="1.15081">
        <ele>164.56</ele>
        <time>2021-05-28T08:27:22Z</time>
      </trkpt>
      <trkpt lat="44.81073" lon="1.15077">
        <ele>166.464</ele>
        <time>2021-05-28T08:27:23Z</time>
      </trkpt>
      <trkpt lat="44.81055" lon="1.15069">
        <ele>170.894</ele>
        <time>2021-05-28T08:27:27Z</time>
      </trkpt>
      <trkpt lat="44.81043" lon="1.15078">
        <ele>168.885</ele>
        <time>2021-05-28T08:27:31Z</time>
      </trkpt>
      <trkpt lat="44.81019" lon="1.15112">
        <ele>162.716</ele>
        <time>2021-05-28T08:27:39Z</time>
      </trkpt>
      <trkpt lat="44.80989" lon="1.15133">
        <ele>164.45</ele>
        <time>2021-05-28T08:27:46Z</time>
      </trkpt>
      <trkpt lat="44.80984" lon="1.15139">
        <ele>163.45</ele>
        <time>2021-05-28T08:27:48Z</time>
      </trkpt>
      <trkpt lat="44.8097" lon="1.15146">
        <ele>163.851</ele>
        <time>2021-05-28T08:27:51Z</time>
      </trkpt>
      <trkpt lat="44.80948" lon="1.15163">
        <ele>160.876</ele>
        <time>2021-05-28T08:27:57Z</time>
      </trkpt>
      <trkpt lat="44.80919" lon="1.15179">
        <ele>160.48</ele>
        <time>2021-05-28T08:28:05Z</time>
      </trkpt>
      <trkpt lat="44.80915" lon="1.15178">
        <ele>162.118</ele>
        <time>2021-05-28T08:28:06Z</time>
      </trkpt>
      <trkpt lat="44.80899" lon="1.15184">
        <ele>163.1</ele>
        <time>2021-05-28T08:28:09Z</time>
      </trkpt>
      <trkpt lat="44.80885" lon="1.15192">
        <ele>160.955</ele>
        <time>2021-05-28T08:28:13Z</time>
      </trkpt>
      <trkpt lat="44.80873" lon="1.15189">
        <ele>164.719</ele>
        <time>2021-05-28T08:28:16Z</time>
      </trkpt>
      <trkpt lat="44.80844" lon="1.15196">
        <ele>164.687</ele>
        <time>2021-05-28T08:28:23Z</time>
      </trkpt>
      <trkpt lat="44.80829" lon="1.15195">
        <ele>166.598</ele>
        <time>2021-05-28T08:28:26Z</time>
      </trkpt>
      <trkpt lat="44.80788" lon="1.152">
        <ele>165.316</ele>
        <time>2021-05-28T08:28:36Z</time>
      </trkpt>
      <trkpt lat="44.80771" lon="1.15194">
        <ele>169.367</ele>
        <time>2021-05-28T08:28:40Z</time>
      </trkpt>
      <trkpt lat="44.80749" lon="1.15191">
        <ele>171.39</ele>
        <time>2021-05-28T08:28:45Z</time>
      </trkpt>
      <trkpt lat="44.80724" lon="1.15193">
        <ele>170.299</ele>
        <time>2021-05-28T08:28:51Z</time>
      </trkpt>
      <trkpt lat="44.80715" lon="1.1519">
        <ele>172</ele>
        <time>2021-05-28T08:28:53Z</time>
      </trkpt>
      <trkpt lat="44.80674" lon="1.15186">
        <ele>172.755</ele>
        <time>2021-05-28T08:29:03Z</time>
      </trkpt>
      <trkpt lat="44.80657" lon="1.152">
        <ele>166.213</ele>
        <time>2021-05-28T08:29:07Z</time>
      </trkpt>
      <trkpt lat="44.80633" lon="1.15201">
        <ele>165.869</ele>
        <time>2021-05-28T08:29:13Z</time>
      </trkpt>
      <trkpt lat="44.80609" lon="1.1521">
        <ele>164.472</ele>
        <time>2021-05-28T08:29:19Z</time>
      </trkpt>
      <trkpt lat="44.80585" lon="1.15211">
        <ele>166.947</ele>
        <time>2021-05-28T08:29:24Z</time>
      </trkpt>
      <trkpt lat="44.80571" lon="1.15216">
        <ele>167.65</ele>
        <time>2021-05-28T08:29:28Z</time>
      </trkpt>
      <trkpt lat="44.80556" lon="1.15218">
        <ele>169.952</ele>
        <time>2021-05-28T08:29:31Z</time>
      </trkpt>
      <trkpt lat="44.80548" lon="1.15224">
        <ele>168.998</ele>
        <time>2021-05-28T08:29:33Z</time>
      </trkpt>
      <trkpt lat="44.80519" lon="1.15236">
        <ele>170.528</ele>
        <time>2021-05-28T08:29:40Z</time>
      </trkpt>
      <trkpt lat="44.80482" lon="1.15239">
        <ele>178.186</ele>
        <time>2021-05-28T08:29:49Z</time>
      </trkpt>
      <trkpt lat="44.8046" lon="1.15245">
        <ele>181.03</ele>
        <time>2021-05-28T08:29:54Z</time>
      </trkpt>
      <trkpt lat="44.80417" lon="1.15247">
        <ele>189.464</ele>
        <time>2021-05-28T08:30:04Z</time>
      </trkpt>
      <trkpt lat="44.80395" lon="1.15255">
        <ele>191.195</ele>
        <time>2021-05-28T08:30:10Z</time>
      </trkpt>
      <trkpt lat="44.80381" lon="1.15257">
        <ele>193.376</ele>
        <time>2021-05-28T08:30:13Z</time>
      </trkpt>
      <trkpt lat="44.80336" lon="1.15279">
        <ele>195.867</ele>
        <time>2021-05-28T08:30:24Z</time>
      </trkpt>
      <trkpt lat="44.80325" lon="1.15287">
        <ele>195.699</ele>
        <time>2021-05-28T08:30:27Z</time>
      </trkpt>
      <trkpt lat="44.80273" lon="1.15344">
        <ele>191.38</ele>
        <time>2021-05-28T08:30:42Z</time>
      </trkpt>
      <trkpt lat="44.8026" lon="1.15351">
        <ele>190.175</ele>
        <time>2021-05-28T08:30:45Z</time>
      </trkpt>
      <trkpt lat="44.80216" lon="1.15359">
        <ele>186.652</ele>
        <time>2021-05-28T08:30:56Z</time>
      </trkpt>
      <trkpt lat="44.80209" lon="1.15363">
        <ele>185.483</ele>
        <time>2021-05-28T08:30:58Z</time>
      </trkpt>
      <trkpt lat="44.80194" lon="1.15378">
        <ele>183.193</ele>
        <time>2021-05-28T08:31:02Z</time>
      </trkpt>
      <trkpt lat="44.80163" lon="1.15388">
        <ele>177.928</ele>
        <time>2021-05-28T08:31:09Z</time>
      </trkpt>
      <trkpt lat="44.8014" lon="1.154">
        <ele>174.096</ele>
        <time>2021-05-28T08:31:15Z</time>
      </trkpt>
      <trkpt lat="44.80123" lon="1.15432">
        <ele>171.092</ele>
        <time>2021-05-28T08:31:22Z</time>
      </trkpt>
      <trkpt lat="44.80121" lon="1.15466">
        <ele>171.104</ele>
        <time>2021-05-28T08:31:27Z</time>
      </trkpt>
      <trkpt lat="44.80118" lon="1.15481">
        <ele>168.752</ele>
        <time>2021-05-28T08:31:30Z</time>
      </trkpt>
      <trkpt lat="44.80113" lon="1.15486">
        <ele>166.876</ele>
        <time>2021-05-28T08:31:31Z</time>
      </trkpt>
      <trkpt lat="44.80106" lon="1.15482">
        <ele>165.862</ele>
        <time>2021-05-28T08:31:33Z</time>
      </trkpt>
      <trkpt lat="44.8009" lon="1.15455">
        <ele>164.095</ele>
        <time>2021-05-28T08:31:39Z</time>
      </trkpt>
      <trkpt lat="44.80087" lon="1.15429">
        <ele>163.288</ele>
        <time>2021-05-28T08:31:43Z</time>
      </trkpt>
      <trkpt lat="44.80088" lon="1.1539">
        <ele>162.456</ele>
        <time>2021-05-28T08:31:50Z</time>
      </trkpt>
      <trkpt lat="44.80083" lon="1.15375">
        <ele>161.373</ele>
        <time>2021-05-28T08:31:52Z</time>
      </trkpt>
      <trkpt lat="44.80062" lon="1.15359">
        <ele>160.34</ele>
        <time>2021-05-28T08:31:58Z</time>
      </trkpt>
      <trkpt lat="44.80066" lon="1.15346">
        <ele>160.557</ele>
        <time>2021-05-28T08:32:00Z</time>
      </trkpt>
      <trkpt lat="44.80086" lon="1.15322">
        <ele>160.218</ele>
        <time>2021-05-28T08:32:07Z</time>
      </trkpt>
      <trkpt lat="44.80101" lon="1.15294">
        <ele>161.775</ele>
        <time>2021-05-28T08:32:12Z</time>
      </trkpt>
      <trkpt lat="44.80105" lon="1.15266">
        <ele>163.307</ele>
        <time>2021-05-28T08:32:17Z</time>
      </trkpt>
      <trkpt lat="44.80105" lon="1.15222">
        <ele>166.195</ele>
        <time>2021-05-28T08:32:24Z</time>
      </trkpt>
      <trkpt lat="44.80096" lon="1.15117">
        <ele>172.78</ele>
        <time>2021-05-28T08:32:42Z</time>
      </trkpt>
      <trkpt lat="44.80097" lon="1.15095">
        <ele>174.085</ele>
        <time>2021-05-28T08:32:46Z</time>
      </trkpt>
      <trkpt lat="44.80089" lon="1.15062">
        <ele>174.904</ele>
        <time>2021-05-28T08:32:51Z</time>
      </trkpt>
      <trkpt lat="44.80077" lon="1.15053">
        <ele>176.732</ele>
        <time>2021-05-28T08:32:55Z</time>
      </trkpt>
      <trkpt lat="44.80063" lon="1.1506">
        <ele>178.146</ele>
        <time>2021-05-28T08:32:58Z</time>
      </trkpt>
      <trkpt lat="44.80053" lon="1.15074">
        <ele>178.429</ele>
        <time>2021-05-28T08:33:01Z</time>
      </trkpt>
      <trkpt lat="44.80026" lon="1.15124">
        <ele>176.193</ele>
        <time>2021-05-28T08:33:12Z</time>
      </trkpt>
      <trkpt lat="44.80003" lon="1.15136">
        <ele>176.292</ele>
        <time>2021-05-28T08:33:17Z</time>
      </trkpt>
      <trkpt lat="44.7998" lon="1.15132">
        <ele>176.811</ele>
        <time>2021-05-28T08:33:23Z</time>
      </trkpt>
      <trkpt lat="44.79952" lon="1.15088">
        <ele>179.685</ele>
        <time>2021-05-28T08:33:33Z</time>
      </trkpt>
      <trkpt lat="44.79934" lon="1.15079">
        <ele>180.77</ele>
        <time>2021-05-28T08:33:37Z</time>
      </trkpt>
      <trkpt lat="44.79916" lon="1.15082">
        <ele>180.38</ele>
        <time>2021-05-28T08:33:41Z</time>
      </trkpt>
      <trkpt lat="44.79894" lon="1.15098">
        <ele>181.602</ele>
        <time>2021-05-28T08:33:47Z</time>
      </trkpt>
      <trkpt lat="44.79885" lon="1.1511">
        <ele>182.66</ele>
        <time>2021-05-28T08:33:50Z</time>
      </trkpt>
      <trkpt lat="44.79867" lon="1.15151">
        <ele>184.012</ele>
        <time>2021-05-28T08:33:58Z</time>
      </trkpt>
      <trkpt lat="44.79842" lon="1.15275">
        <ele>187.133</ele>
        <time>2021-05-28T08:34:19Z</time>
      </trkpt>
      <trkpt lat="44.79807" lon="1.1539">
        <ele>193.294</ele>
        <time>2021-05-28T08:34:40Z</time>
      </trkpt>
      <trkpt lat="44.79799" lon="1.15407">
        <ele>194.125</ele>
        <time>2021-05-28T08:34:43Z</time>
      </trkpt>
      <trkpt lat="44.79803" lon="1.15457">
        <ele>193.562</ele>
        <time>2021-05-28T08:34:52Z</time>
      </trkpt>
      <trkpt lat="44.79811" lon="1.15494">
        <ele>193.538</ele>
        <time>2021-05-28T08:34:58Z</time>
      </trkpt>
      <trkpt lat="44.79807" lon="1.15444">
        <ele>193.406</ele>
        <time>2021-05-28T08:35:07Z</time>
      </trkpt>
      <trkpt lat="44.79793" lon="1.15368">
        <ele>194.839</ele>
        <time>2021-05-28T08:35:20Z</time>
      </trkpt>
      <trkpt lat="44.79781" lon="1.15259">
        <ele>198.137</ele>
        <time>2021-05-28T08:35:38Z</time>
      </trkpt>
      <trkpt lat="44.79782" lon="1.15237">
        <ele>198.641</ele>
        <time>2021-05-28T08:35:41Z</time>
      </trkpt>
      <trkpt lat="44.79779" lon="1.15199">
        <ele>200.278</ele>
        <time>2021-05-28T08:35:48Z</time>
      </trkpt>
      <trkpt lat="44.79778" lon="1.1513">
        <ele>202.107</ele>
        <time>2021-05-28T08:35:59Z</time>
      </trkpt>
      <trkpt lat="44.79781" lon="1.1505">
        <ele>202.456</ele>
        <time>2021-05-28T08:36:13Z</time>
      </trkpt>
      <trkpt lat="44.79784" lon="1.15013">
        <ele>202.462</ele>
        <time>2021-05-28T08:36:19Z</time>
      </trkpt>
      <trkpt lat="44.79794" lon="1.14962">
        <ele>202.053</ele>
        <time>2021-05-28T08:36:27Z</time>
      </trkpt>
      <trkpt lat="44.798" lon="1.14952">
        <ele>201.472</ele>
        <time>2021-05-28T08:36:30Z</time>
      </trkpt>
      <trkpt lat="44.79808" lon="1.14945">
        <ele>201.161</ele>
        <time>2021-05-28T08:36:32Z</time>
      </trkpt>
      <trkpt lat="44.79841" lon="1.14928">
        <ele>198.941</ele>
        <time>2021-05-28T08:36:40Z</time>
      </trkpt>
      <trkpt lat="44.79877" lon="1.14913">
        <ele>196.758</ele>
        <time>2021-05-28T08:36:49Z</time>
      </trkpt>
      <trkpt lat="44.79913" lon="1.14909">
        <ele>195.41</ele>
        <time>2021-05-28T08:36:57Z</time>
      </trkpt>
      <trkpt lat="44.79925" lon="1.14905">
        <ele>196.926</ele>
        <time>2021-05-28T08:37:00Z</time>
      </trkpt>
      <trkpt lat="44.79937" lon="1.14896">
        <ele>198.433</ele>
        <time>2021-05-28T08:37:03Z</time>
      </trkpt>
      <trkpt lat="44.79941" lon="1.1489">
        <ele>198.918</ele>
        <time>2021-05-28T08:37:05Z</time>
      </trkpt>
      <trkpt lat="44.80007" lon="1.1477">
        <ele>201.634</ele>
        <time>2021-05-28T08:37:30Z</time>
      </trkpt>
      <trkpt lat="44.80022" lon="1.14735">
        <ele>202.112</ele>
        <time>2021-05-28T08:37:37Z</time>
      </trkpt>
      <trkpt lat="44.8007" lon="1.14607">
        <ele>202.162</ele>
        <time>2021-05-28T08:38:01Z</time>
      </trkpt>
      <trkpt lat="44.80098" lon="1.14512">
        <ele>202.617</ele>
        <time>2021-05-28T08:38:18Z</time>
      </trkpt>
      <trkpt lat="44.80145" lon="1.14382">
        <ele>203.789</ele>
        <time>2021-05-28T08:38:42Z</time>
      </trkpt>
      <trkpt lat="44.80143" lon="1.14376">
        <ele>203.928</ele>
        <time>2021-05-28T08:38:43Z</time>
      </trkpt>
      <trkpt lat="44.80147" lon="1.14301">
        <ele>204.53</ele>
        <time>2021-05-28T08:38:55Z</time>
      </trkpt>
      <trkpt lat="44.80155" lon="1.14262">
        <ele>204.281</ele>
        <time>2021-05-28T08:39:02Z</time>
      </trkpt>
      <trkpt lat="44.80185" lon="1.14212">
        <ele>202.746</ele>
        <time>2021-05-28T08:39:13Z</time>
      </trkpt>
      <trkpt lat="44.80197" lon="1.14177">
        <ele>202.223</ele>
        <time>2021-05-28T08:39:19Z</time>
      </trkpt>
      <trkpt lat="44.80226" lon="1.14035">
        <ele>203.111</ele>
        <time>2021-05-28T08:39:44Z</time>
      </trkpt>
      <trkpt lat="44.8024" lon="1.13945">
        <ele>200.917</ele>
        <time>2021-05-28T08:39:59Z</time>
      </trkpt>
      <trkpt lat="44.80241" lon="1.13892">
        <ele>200.079</ele>
        <time>2021-05-28T08:40:08Z</time>
      </trkpt>
      <trkpt lat="44.80231" lon="1.13803">
        <ele>196.721</ele>
        <time>2021-05-28T08:40:23Z</time>
      </trkpt>
      <trkpt lat="44.80231" lon="1.13784">
        <ele>195.977</ele>
        <time>2021-05-28T08:40:26Z</time>
      </trkpt>
      <trkpt lat="44.80239" lon="1.13696">
        <ele>192.996</ele>
        <time>2021-05-28T08:40:41Z</time>
      </trkpt>
      <trkpt lat="44.80241" lon="1.13584">
        <ele>192.856</ele>
        <time>2021-05-28T08:40:59Z</time>
      </trkpt>
      <trkpt lat="44.80245" lon="1.13577">
        <ele>192.606</ele>
        <time>2021-05-28T08:41:01Z</time>
      </trkpt>
      <trkpt lat="44.80274" lon="1.13564">
        <ele>189.847</ele>
        <time>2021-05-28T08:41:08Z</time>
      </trkpt>
      <trkpt lat="44.80301" lon="1.13545">
        <ele>186.992</ele>
        <time>2021-05-28T08:41:15Z</time>
      </trkpt>
      <trkpt lat="44.80315" lon="1.13528">
        <ele>185.313</ele>
        <time>2021-05-28T08:41:19Z</time>
      </trkpt>
      <trkpt lat="44.80341" lon="1.13487">
        <ele>181.146</ele>
        <time>2021-05-28T08:41:28Z</time>
      </trkpt>
      <trkpt lat="44.80402" lon="1.13429">
        <ele>177.745</ele>
        <time>2021-05-28T08:41:46Z</time>
      </trkpt>
      <trkpt lat="44.80421" lon="1.13403">
        <ele>177.048</ele>
        <time>2021-05-28T08:41:52Z</time>
      </trkpt>
      <trkpt lat="44.8044" lon="1.13364">
        <ele>174.358</ele>
        <time>2021-05-28T08:42:00Z</time>
      </trkpt>
      <trkpt lat="44.80445" lon="1.13358">
        <ele>173.979</ele>
        <time>2021-05-28T08:42:01Z</time>
      </trkpt>
      <trkpt lat="44.80462" lon="1.13343">
        <ele>172.718</ele>
        <time>2021-05-28T08:42:06Z</time>
      </trkpt>
      <trkpt lat="44.80498" lon="1.13321">
        <ele>170.053</ele>
        <time>2021-05-28T08:42:15Z</time>
      </trkpt>
      <trkpt lat="44.80525" lon="1.13308">
        <ele>168.129</ele>
        <time>2021-05-28T08:42:22Z</time>
      </trkpt>
      <trkpt lat="44.80535" lon="1.13307">
        <ele>168.127</ele>
        <time>2021-05-28T08:42:24Z</time>
      </trkpt>
      <trkpt lat="44.80566" lon="1.13311">
        <ele>169.883</ele>
        <time>2021-05-28T08:42:31Z</time>
      </trkpt>
      <trkpt lat="44.80576" lon="1.13318">
        <ele>171.47</ele>
        <time>2021-05-28T08:42:34Z</time>
      </trkpt>
      <trkpt lat="44.80609" lon="1.13332">
        <ele>174.428</ele>
        <time>2021-05-28T08:42:42Z</time>
      </trkpt>
      <trkpt lat="44.80633" lon="1.1335">
        <ele>179.855</ele>
        <time>2021-05-28T08:42:48Z</time>
      </trkpt>
      <trkpt lat="44.80646" lon="1.13353">
        <ele>181.203</ele>
        <time>2021-05-28T08:42:51Z</time>
      </trkpt>
      <trkpt lat="44.80656" lon="1.1335">
        <ele>181.643</ele>
        <time>2021-05-28T08:42:54Z</time>
      </trkpt>
      <trkpt lat="44.80665" lon="1.13331">
        <ele>181.62</ele>
        <time>2021-05-28T08:42:57Z</time>
      </trkpt>
      <trkpt lat="44.8067" lon="1.13334">
        <ele>183.013</ele>
        <time>2021-05-28T08:42:59Z</time>
      </trkpt>
      <trkpt lat="44.80672" lon="1.13346">
        <ele>184.551</ele>
        <time>2021-05-28T08:43:01Z</time>
      </trkpt>
      <trkpt lat="44.80675" lon="1.1335">
        <ele>185.518</ele>
        <time>2021-05-28T08:43:02Z</time>
      </trkpt>
      <trkpt lat="44.80678" lon="1.13407">
        <ele>190.71</ele>
        <time>2021-05-28T08:43:11Z</time>
      </trkpt>
      <trkpt lat="44.80685" lon="1.13438">
        <ele>193.704</ele>
        <time>2021-05-28T08:43:17Z</time>
      </trkpt>
      <trkpt lat="44.80714" lon="1.13515">
        <ele>199.121</ele>
        <time>2021-05-28T08:43:31Z</time>
      </trkpt>
      <trkpt lat="44.80754" lon="1.13558">
        <ele>203.306</ele>
        <time>2021-05-28T08:43:43Z</time>
      </trkpt>
      <trkpt lat="44.80771" lon="1.13568">
        <ele>205.969</ele>
        <time>2021-05-28T08:43:47Z</time>
      </trkpt>
      <trkpt lat="44.80809" lon="1.13583">
        <ele>209.652</ele>
        <time>2021-05-28T08:43:56Z</time>
      </trkpt>
      <trkpt lat="44.80827" lon="1.13594">
        <ele>209.942</ele>
        <time>2021-05-28T08:44:01Z</time>
      </trkpt>
      <trkpt lat="44.80836" lon="1.13596">
        <ele>210.314</ele>
        <time>2021-05-28T08:44:03Z</time>
      </trkpt>
      <trkpt lat="44.80851" lon="1.13606">
        <ele>209.081</ele>
        <time>2021-05-28T08:44:07Z</time>
      </trkpt>
      <trkpt lat="44.809" lon="1.13505">
        <ele>215.399</ele>
        <time>2021-05-28T08:44:27Z</time>
      </trkpt>
      <trkpt lat="44.80906" lon="1.135">
        <ele>215.114</ele>
        <time>2021-05-28T08:44:29Z</time>
      </trkpt>
      <trkpt lat="44.80926" lon="1.13501">
        <ele>212.353</ele>
        <time>2021-05-28T08:44:33Z</time>
      </trkpt>
      <trkpt lat="44.80949" lon="1.13526">
        <ele>207.908</ele>
        <time>2021-05-28T08:44:40Z</time>
      </trkpt>
      <trkpt lat="44.80978" lon="1.13539">
        <ele>204.998</ele>
        <time>2021-05-28T08:44:47Z</time>
      </trkpt>
      <trkpt lat="44.81014" lon="1.13552">
        <ele>204.123</ele>
        <time>2021-05-28T08:44:56Z</time>
      </trkpt>
      <trkpt lat="44.81027" lon="1.13552">
        <ele>204.309</ele>
        <time>2021-05-28T08:44:59Z</time>
      </trkpt>
      <trkpt lat="44.81077" lon="1.13535">
        <ele>204.672</ele>
        <time>2021-05-28T08:45:11Z</time>
      </trkpt>
      <trkpt lat="44.81145" lon="1.13496">
        <ele>206.86</ele>
        <time>2021-05-28T08:45:28Z</time>
      </trkpt>
      <trkpt lat="44.81146" lon="1.13489">
        <ele>207.814</ele>
        <time>2021-05-28T08:45:29Z</time>
      </trkpt>
      <trkpt lat="44.81139" lon="1.13474">
        <ele>208.065</ele>
        <time>2021-05-28T08:45:32Z</time>
      </trkpt>
      <trkpt lat="44.81125" lon="1.13425">
        <ele>208.268</ele>
        <time>2021-05-28T08:45:41Z</time>
      </trkpt>
      <trkpt lat="44.81112" lon="1.13404">
        <ele>206.828</ele>
        <time>2021-05-28T08:45:46Z</time>
      </trkpt>
      <trkpt lat="44.81102" lon="1.1338">
        <ele>205.158</ele>
        <time>2021-05-28T08:45:50Z</time>
      </trkpt>
      <trkpt lat="44.81089" lon="1.13357">
        <ele>202.654</ele>
        <time>2021-05-28T08:45:55Z</time>
      </trkpt>
      <trkpt lat="44.81092" lon="1.13334">
        <ele>202.363</ele>
        <time>2021-05-28T08:45:59Z</time>
      </trkpt>
      <trkpt lat="44.81089" lon="1.13338">
        <ele>202.083</ele>
        <time>2021-05-28T08:46:00Z</time>
      </trkpt>
      <trkpt lat="44.81083" lon="1.1333">
        <ele>201.045</ele>
        <time>2021-05-28T08:46:02Z</time>
      </trkpt>
      <trkpt lat="44.8106" lon="1.13269">
        <ele>195.619</ele>
        <time>2021-05-28T08:46:13Z</time>
      </trkpt>
      <trkpt lat="44.8105" lon="1.13211">
        <ele>188.922</ele>
        <time>2021-05-28T08:46:23Z</time>
      </trkpt>
      <trkpt lat="44.81049" lon="1.13197">
        <ele>186.53</ele>
        <time>2021-05-28T08:46:26Z</time>
      </trkpt>
      <trkpt lat="44.81052" lon="1.13172">
        <ele>182.4</ele>
        <time>2021-05-28T08:46:30Z</time>
      </trkpt>
      <trkpt lat="44.81047" lon="1.13128">
        <ele>174.284</ele>
        <time>2021-05-28T08:46:37Z</time>
      </trkpt>
      <trkpt lat="44.81015" lon="1.13124">
        <ele>171.566</ele>
        <time>2021-05-28T08:46:45Z</time>
      </trkpt>
      <trkpt lat="44.81011" lon="1.1312">
        <ele>170.869</ele>
        <time>2021-05-28T08:46:46Z</time>
      </trkpt>
      <trkpt lat="44.80989" lon="1.13075">
        <ele>162.248</ele>
        <time>2021-05-28T08:46:55Z</time>
      </trkpt>
      <trkpt lat="44.80973" lon="1.13059">
        <ele>160.482</ele>
        <time>2021-05-28T08:47:00Z</time>
      </trkpt>
      <trkpt lat="44.80966" lon="1.13047">
        <ele>158.186</ele>
        <time>2021-05-28T08:47:02Z</time>
      </trkpt>
      <trkpt lat="44.80959" lon="1.13021">
        <ele>151.489</ele>
        <time>2021-05-28T08:47:07Z</time>
      </trkpt>
      <trkpt lat="44.80937" lon="1.12991">
        <ele>145.216</ele>
        <time>2021-05-28T08:47:14Z</time>
      </trkpt>
      <trkpt lat="44.80932" lon="1.1298">
        <ele>143.077</ele>
        <time>2021-05-28T08:47:16Z</time>
      </trkpt>
      <trkpt lat="44.80919" lon="1.12971">
        <ele>142.289</ele>
        <time>2021-05-28T08:47:19Z</time>
      </trkpt>
      <trkpt lat="44.80918" lon="1.12965">
        <ele>140.979</ele>
        <time>2021-05-28T08:47:20Z</time>
      </trkpt>
      <trkpt lat="44.80891" lon="1.1295">
        <ele>138.12</ele>
        <time>2021-05-28T08:47:27Z</time>
      </trkpt>
      <trkpt lat="44.80877" lon="1.12936">
        <ele>135.26</ele>
        <time>2021-05-28T08:47:31Z</time>
      </trkpt>
      <trkpt lat="44.80831" lon="1.129">
        <ele>125.39</ele>
        <time>2021-05-28T08:47:44Z</time>
      </trkpt>
      <trkpt lat="44.80829" lon="1.12896">
        <ele>124.632</ele>
        <time>2021-05-28T08:47:44Z</time>
      </trkpt>
      <trkpt lat="44.80835" lon="1.12887">
        <ele>123.235</ele>
        <time>2021-05-28T08:47:46Z</time>
      </trkpt>
      <trkpt lat="44.80882" lon="1.12872">
        <ele>121.111</ele>
        <time>2021-05-28T08:47:58Z</time>
      </trkpt>
      <trkpt lat="44.80947" lon="1.12845">
        <ele>117.022</ele>
        <time>2021-05-28T08:48:13Z</time>
      </trkpt>
      <trkpt lat="44.81006" lon="1.12843">
        <ele>115.284</ele>
        <time>2021-05-28T08:48:27Z</time>
      </trkpt>
      <trkpt lat="44.81035" lon="1.12833">
        <ele>115.767</ele>
        <time>2021-05-28T08:48:34Z</time>
      </trkpt>
      <trkpt lat="44.81043" lon="1.12827">
        <ele>115.599</ele>
        <time>2021-05-28T08:48:36Z</time>
      </trkpt>
      <trkpt lat="44.81061" lon="1.12805">
        <ele>114.121</ele>
        <time>2021-05-28T08:48:42Z</time>
      </trkpt>
      <trkpt lat="44.81122" lon="1.12755">
        <ele>112.167</ele>
        <time>2021-05-28T08:48:58Z</time>
      </trkpt>
      <trkpt lat="44.81174" lon="1.1267">
        <ele>105.281</ele>
        <time>2021-05-28T08:49:17Z</time>
      </trkpt>
      <trkpt lat="44.81217" lon="1.12611">
        <ele>103.008</ele>
        <time>2021-05-28T08:49:31Z</time>
      </trkpt>
      <trkpt lat="44.81225" lon="1.1259">
        <ele>101.565</ele>
        <time>2021-05-28T08:49:35Z</time>
      </trkpt>
      <trkpt lat="44.81226" lon="1.12577">
        <ele>100.209</ele>
        <time>2021-05-28T08:49:37Z</time>
      </trkpt>
      <trkpt lat="44.81222" lon="1.12573">
        <ele>99.307</ele>
        <time>2021-05-28T08:49:38Z</time>
      </trkpt>
      <trkpt lat="44.81215" lon="1.12572">
        <ele>98.469</ele>
        <time>2021-05-28T08:49:40Z</time>
      </trkpt>
      <trkpt lat="44.81204" lon="1.12576">
        <ele>97.639</ele>
        <time>2021-05-28T08:49:43Z</time>
      </trkpt>
      <trkpt lat="44.8115" lon="1.12585">
        <ele>98.301</ele>
        <time>2021-05-28T08:49:55Z</time>
      </trkpt>
      <trkpt lat="44.81115" lon="1.12589">
        <ele>99.605</ele>
        <time>2021-05-28T08:50:03Z</time>
      </trkpt>
      <trkpt lat="44.81085" lon="1.12588">
        <ele>100.165</ele>
        <time>2021-05-28T08:50:10Z</time>
      </trkpt>
      <trkpt lat="44.81059" lon="1.12582">
        <ele>100.327</ele>
        <time>2021-05-28T08:50:17Z</time>
      </trkpt>
      <trkpt lat="44.81006" lon="1.1256">
        <ele>101.555</ele>
        <time>2021-05-28T08:50:29Z</time>
      </trkpt>
      <trkpt lat="44.80957" lon="1.12546">
        <ele>101.45</ele>
        <time>2021-05-28T08:50:41Z</time>
      </trkpt>
      <trkpt lat="44.80944" lon="1.12539">
        <ele>101.902</ele>
        <time>2021-05-28T08:50:44Z</time>
      </trkpt>
      <trkpt lat="44.80877" lon="1.1253">
        <ele>105.254</ele>
        <time>2021-05-28T08:51:00Z</time>
      </trkpt>
      <trkpt lat="44.80864" lon="1.12531">
        <ele>106.093</ele>
        <time>2021-05-28T08:51:03Z</time>
      </trkpt>
      <trkpt lat="44.80774" lon="1.12522">
        <ele>109.047</ele>
        <time>2021-05-28T08:51:24Z</time>
      </trkpt>
      <trkpt lat="44.80731" lon="1.12506">
        <ele>108.612</ele>
        <time>2021-05-28T08:51:35Z</time>
      </trkpt>
      <trkpt lat="44.80718" lon="1.12497">
        <ele>107.948</ele>
        <time>2021-05-28T08:51:38Z</time>
      </trkpt>
      <trkpt lat="44.80692" lon="1.12462">
        <ele>106.294</ele>
        <time>2021-05-28T08:51:46Z</time>
      </trkpt>
      <trkpt lat="44.80676" lon="1.12433">
        <ele>107.286</ele>
        <time>2021-05-28T08:51:52Z</time>
      </trkpt>
      <trkpt lat="44.80665" lon="1.12402">
        <ele>107.09</ele>
        <time>2021-05-28T08:51:58Z</time>
      </trkpt>
      <trkpt lat="44.80654" lon="1.12381">
        <ele>106.817</ele>
        <time>2021-05-28T08:52:03Z</time>
      </trkpt>
      <trkpt lat="44.80647" lon="1.12356">
        <ele>105.36</ele>
        <time>2021-05-28T08:52:07Z</time>
      </trkpt>
      <trkpt lat="44.80615" lon="1.12287">
        <ele>105.524</ele>
        <time>2021-05-28T08:52:21Z</time>
      </trkpt>
      <trkpt lat="44.80596" lon="1.12266">
        <ele>106.21</ele>
        <time>2021-05-28T08:52:26Z</time>
      </trkpt>
      <trkpt lat="44.80562" lon="1.1224">
        <ele>108.296</ele>
        <time>2021-05-28T08:52:35Z</time>
      </trkpt>
      <trkpt lat="44.80547" lon="1.12214">
        <ele>109.547</ele>
        <time>2021-05-28T08:52:41Z</time>
      </trkpt>
      <trkpt lat="44.80522" lon="1.12155">
        <ele>111.106</ele>
        <time>2021-05-28T08:52:52Z</time>
      </trkpt>
      <trkpt lat="44.80514" lon="1.12145">
        <ele>111.935</ele>
        <time>2021-05-28T08:52:55Z</time>
      </trkpt>
      <trkpt lat="44.80483" lon="1.12122">
        <ele>116.79</ele>
        <time>2021-05-28T08:53:03Z</time>
      </trkpt>
      <trkpt lat="44.80434" lon="1.12051">
        <ele>122.018</ele>
        <time>2021-05-28T08:53:19Z</time>
      </trkpt>
      <trkpt lat="44.80406" lon="1.12005">
        <ele>120.079</ele>
        <time>2021-05-28T08:53:29Z</time>
      </trkpt>
      <trkpt lat="44.80405" lon="1.12002">
        <ele>119.83</ele>
        <time>2021-05-28T08:53:30Z</time>
      </trkpt>
      <trkpt lat="44.80411" lon="1.11996">
        <ele>118.966</ele>
        <time>2021-05-28T08:53:32Z</time>
      </trkpt>
      <trkpt lat="44.80452" lon="1.11974">
        <ele>114.761</ele>
      </trkpt>
      <trkpt lat="44.80458" lon="1.1195">
        <ele>116.022</ele>
        <time>2021-05-28T08:53:46Z</time>
      </trkpt>
      <trkpt lat="44.80458" lon="1.11942">
        <ele>116.623</ele>
        <time>2021-05-28T08:53:47Z</time>
      </trkpt>
      <trkpt lat="44.80454" lon="1.11971">
        <ele>114.777</ele>
      </trkpt>
      <trkpt lat="44.80409" lon="1.11996">
        <ele>119.054</ele>
        <time>2021-05-28T08:54:02Z</time>
      </trkpt>
      <trkpt lat="44.80365" lon="1.12013">
        <ele>123.051</ele>
        <time>2021-05-28T08:54:13Z</time>
      </trkpt>
      <trkpt lat="44.80344" lon="1.1201">
        <ele>124.027</ele>
        <time>2021-05-28T08:54:18Z</time>
      </trkpt>
      <trkpt lat="44.80321" lon="1.11998">
        <ele>123.875</ele>
        <time>2021-05-28T08:54:24Z</time>
      </trkpt>
      <trkpt lat="44.8031" lon="1.11979">
        <ele>123.321</ele>
        <time>2021-05-28T08:54:28Z</time>
      </trkpt>
      <trkpt lat="44.80301" lon="1.11944">
        <ele>121.813</ele>
        <time>2021-05-28T08:54:34Z</time>
      </trkpt>
      <trkpt lat="44.80284" lon="1.11915">
        <ele>121.585</ele>
        <time>2021-05-28T08:54:40Z</time>
      </trkpt>
      <trkpt lat="44.8028" lon="1.11888">
        <ele>121.363</ele>
        <time>2021-05-28T08:54:45Z</time>
      </trkpt>
      <trkpt lat="44.80283" lon="1.11882">
        <ele>121.268</ele>
        <time>2021-05-28T08:54:46Z</time>
      </trkpt>
      <trkpt lat="44.80291" lon="1.11878">
        <ele>121.252</ele>
        <time>2021-05-28T08:54:48Z</time>
      </trkpt>
      <trkpt lat="44.80317" lon="1.11883">
        <ele>121.122</ele>
        <time>2021-05-28T08:54:54Z</time>
      </trkpt>
      <trkpt lat="44.80325" lon="1.11889">
        <ele>120.854</ele>
        <time>2021-05-28T08:54:56Z</time>
      </trkpt>
      <trkpt lat="44.80335" lon="1.11902">
        <ele>120.858</ele>
        <time>2021-05-28T08:54:59Z</time>
      </trkpt>
      <trkpt lat="44.80337" lon="1.119">
        <ele>121.128</ele>
        <time>2021-05-28T08:55:00Z</time>
      </trkpt>
      <trkpt lat="44.80346" lon="1.11861">
        <ele>125.076</ele>
        <time>2021-05-28T08:55:07Z</time>
      </trkpt>
      <trkpt lat="44.80358" lon="1.11828">
        <ele>129.493</ele>
        <time>2021-05-28T08:55:13Z</time>
      </trkpt>
      <trkpt lat="44.80361" lon="1.11822">
        <ele>130.548</ele>
        <time>2021-05-28T08:55:14Z</time>
      </trkpt>
      <trkpt lat="44.80374" lon="1.11813">
        <ele>133.742</ele>
        <time>2021-05-28T08:55:17Z</time>
      </trkpt>
      <trkpt lat="44.80377" lon="1.11808">
        <ele>134.888</ele>
        <time>2021-05-28T08:55:19Z</time>
      </trkpt>
      <trkpt lat="44.80374" lon="1.11651">
        <ele>150.286</ele>
        <time>2021-05-28T08:55:45Z</time>
      </trkpt>
      <trkpt lat="44.80376" lon="1.11583">
        <ele>154.46</ele>
        <time>2021-05-28T08:55:56Z</time>
      </trkpt>
      <trkpt lat="44.8038" lon="1.11555">
        <ele>156.286</ele>
        <time>2021-05-28T08:56:01Z</time>
      </trkpt>
      <trkpt lat="44.80421" lon="1.11428">
        <ele>159.768</ele>
        <time>2021-05-28T08:56:24Z</time>
      </trkpt>
      <trkpt lat="44.80451" lon="1.11351">
        <ele>162.113</ele>
        <time>2021-05-28T08:56:38Z</time>
      </trkpt>
      <trkpt lat="44.80465" lon="1.113">
        <ele>163.687</ele>
        <time>2021-05-28T08:56:47Z</time>
      </trkpt>
      <trkpt lat="44.80499" lon="1.11227">
        <ele>170.49</ele>
        <time>2021-05-28T08:57:02Z</time>
      </trkpt>
      <trkpt lat="44.80537" lon="1.11177">
        <ele>178.386</ele>
        <time>2021-05-28T08:57:14Z</time>
      </trkpt>
      <trkpt lat="44.80549" lon="1.11151">
        <ele>180.255</ele>
        <time>2021-05-28T08:57:19Z</time>
      </trkpt>
      <trkpt lat="44.80564" lon="1.11078">
        <ele>184.334</ele>
        <time>2021-05-28T08:57:32Z</time>
      </trkpt>
      <trkpt lat="44.80568" lon="1.11037">
        <ele>186.883</ele>
        <time>2021-05-28T08:57:39Z</time>
      </trkpt>
      <trkpt lat="44.8057" lon="1.10934">
        <ele>193.43</ele>
        <time>2021-05-28T08:57:56Z</time>
      </trkpt>
      <trkpt lat="44.80573" lon="1.1091">
        <ele>195.582</ele>
        <time>2021-05-28T08:58:00Z</time>
      </trkpt>
      <trkpt lat="44.80583" lon="1.1091">
        <ele>196.01</ele>
        <time>2021-05-28T08:58:02Z</time>
      </trkpt>
      <trkpt lat="44.80602" lon="1.10916">
        <ele>194.731</ele>
        <time>2021-05-28T08:58:07Z</time>
      </trkpt>
      <trkpt lat="44.80624" lon="1.10917">
        <ele>193.703</ele>
        <time>2021-05-28T08:58:12Z</time>
      </trkpt>
      <trkpt lat="44.80736" lon="1.1089">
        <ele>184.761</ele>
        <time>2021-05-28T08:58:38Z</time>
      </trkpt>
      <trkpt lat="44.80778" lon="1.10876">
        <ele>183.121</ele>
        <time>2021-05-28T08:58:48Z</time>
      </trkpt>
      <trkpt lat="44.808" lon="1.10866">
        <ele>182.451</ele>
        <time>2021-05-28T08:58:54Z</time>
      </trkpt>
      <trkpt lat="44.80832" lon="1.10834">
        <ele>182.991</ele>
        <time>2021-05-28T08:59:03Z</time>
      </trkpt>
      <trkpt lat="44.80857" lon="1.10821">
        <ele>182.466</ele>
        <time>2021-05-28T08:59:09Z</time>
      </trkpt>
      <trkpt lat="44.80883" lon="1.10815">
        <ele>183.022</ele>
        <time>2021-05-28T08:59:15Z</time>
      </trkpt>
      <trkpt lat="44.80906" lon="1.1082">
        <ele>183.645</ele>
        <time>2021-05-28T08:59:21Z</time>
      </trkpt>
      <trkpt lat="44.80939" lon="1.10823">
        <ele>184.878</ele>
        <time>2021-05-28T08:59:28Z</time>
      </trkpt>
      <trkpt lat="44.80965" lon="1.10819">
        <ele>184.651</ele>
        <time>2021-05-28T08:59:34Z</time>
      </trkpt>
      <trkpt lat="44.80996" lon="1.10842">
        <ele>183.658</ele>
        <time>2021-05-28T08:59:43Z</time>
      </trkpt>
      <trkpt lat="44.81015" lon="1.10849">
        <ele>182.807</ele>
        <time>2021-05-28T08:59:47Z</time>
      </trkpt>
      <trkpt lat="44.81066" lon="1.10861">
        <ele>178.935</ele>
        <time>2021-05-28T08:59:59Z</time>
      </trkpt>
      <trkpt lat="44.8114" lon="1.1091">
        <ele>170.714</ele>
        <time>2021-05-28T09:00:18Z</time>
      </trkpt>
      <trkpt lat="44.81178" lon="1.10953">
        <ele>167.648</ele>
        <time>2021-05-28T09:00:30Z</time>
      </trkpt>
      <trkpt lat="44.81256" lon="1.11082">
        <ele>153.919</ele>
        <time>2021-05-28T09:00:58Z</time>
      </trkpt>
      <trkpt lat="44.81264" lon="1.11088">
        <ele>153.346</ele>
        <time>2021-05-28T09:01:00Z</time>
      </trkpt>
      <trkpt lat="44.81278" lon="1.11094">
        <ele>151.891</ele>
        <time>2021-05-28T09:01:03Z</time>
      </trkpt>
      <trkpt lat="44.81287" lon="1.11093">
        <ele>151.688</ele>
        <time>2021-05-28T09:01:06Z</time>
      </trkpt>
      <trkpt lat="44.81292" lon="1.11087">
        <ele>152.241</ele>
        <time>2021-05-28T09:01:07Z</time>
      </trkpt>
      <trkpt lat="44.81317" lon="1.10988">
        <ele>151.952</ele>
        <time>2021-05-28T09:01:24Z</time>
      </trkpt>
      <trkpt lat="44.81315" lon="1.1088">
        <ele>150.522</ele>
        <time>2021-05-28T09:01:42Z</time>
      </trkpt>
      <trkpt lat="44.81303" lon="1.10765">
        <ele>146.729</ele>
        <time>2021-05-28T09:02:02Z</time>
      </trkpt>
      <trkpt lat="44.81308" lon="1.10757">
        <ele>145.978</ele>
        <time>2021-05-28T09:02:03Z</time>
      </trkpt>
      <trkpt lat="44.81346" lon="1.10761">
        <ele>141.142</ele>
        <time>2021-05-28T09:02:12Z</time>
      </trkpt>
      <trkpt lat="44.81387" lon="1.10769">
        <ele>135.758</ele>
        <time>2021-05-28T09:02:22Z</time>
      </trkpt>
      <trkpt lat="44.81403" lon="1.1077">
        <ele>133.679</ele>
        <time>2021-05-28T09:02:26Z</time>
      </trkpt>
      <trkpt lat="44.8146" lon="1.10766">
        <ele>126.371</ele>
        <time>2021-05-28T09:02:39Z</time>
      </trkpt>
      <trkpt lat="44.81482" lon="1.10768">
        <ele>123.865</ele>
        <time>2021-05-28T09:02:44Z</time>
      </trkpt>
      <trkpt lat="44.8149" lon="1.10764">
        <ele>123.025</ele>
        <time>2021-05-28T09:02:46Z</time>
      </trkpt>
      <trkpt lat="44.81501" lon="1.1073">
        <ele>127.824</ele>
        <time>2021-05-28T09:02:52Z</time>
      </trkpt>
      <trkpt lat="44.81508" lon="1.10725">
        <ele>128.197</ele>
        <time>2021-05-28T09:02:54Z</time>
      </trkpt>
      <trkpt lat="44.81538" lon="1.10713">
        <ele>128.408</ele>
        <time>2021-05-28T09:03:01Z</time>
      </trkpt>
      <trkpt lat="44.8157" lon="1.10692">
        <ele>128.825</ele>
        <time>2021-05-28T09:03:10Z</time>
      </trkpt>
      <trkpt lat="44.81603" lon="1.10657">
        <ele>130.103</ele>
        <time>2021-05-28T09:03:19Z</time>
      </trkpt>
      <trkpt lat="44.81621" lon="1.10645">
        <ele>131.424</ele>
        <time>2021-05-28T09:03:24Z</time>
      </trkpt>
      <trkpt lat="44.81639" lon="1.10646">
        <ele>131.803</ele>
        <time>2021-05-28T09:03:28Z</time>
      </trkpt>
      <trkpt lat="44.81651" lon="1.10652">
        <ele>131.37</ele>
        <time>2021-05-28T09:03:31Z</time>
      </trkpt>
      <trkpt lat="44.81663" lon="1.10673">
        <ele>129.016</ele>
        <time>2021-05-28T09:03:36Z</time>
      </trkpt>
      <trkpt lat="44.81683" lon="1.10696">
        <ele>126.07</ele>
        <time>2021-05-28T09:03:42Z</time>
      </trkpt>
      <trkpt lat="44.81701" lon="1.10706">
        <ele>124.187</ele>
        <time>2021-05-28T09:03:46Z</time>
      </trkpt>
      <trkpt lat="44.81765" lon="1.10716">
        <ele>116.681</ele>
        <time>2021-05-28T09:04:01Z</time>
      </trkpt>
      <trkpt lat="44.81811" lon="1.10728">
        <ele>109.413</ele>
        <time>2021-05-28T09:04:12Z</time>
      </trkpt>
      <trkpt lat="44.8185" lon="1.10732">
        <ele>105.91</ele>
        <time>2021-05-28T09:04:21Z</time>
      </trkpt>
      <trkpt lat="44.81873" lon="1.10738">
        <ele>105.42</ele>
        <time>2021-05-28T09:04:27Z</time>
      </trkpt>
      <trkpt lat="44.81884" lon="1.10735">
        <ele>105.905</ele>
        <time>2021-05-28T09:04:29Z</time>
      </trkpt>
      <trkpt lat="44.8189" lon="1.10727">
        <ele>106.692</ele>
        <time>2021-05-28T09:04:31Z</time>
      </trkpt>
      <trkpt lat="44.81904" lon="1.10671">
        <ele>110.423</ele>
        <time>2021-05-28T09:04:41Z</time>
      </trkpt>
      <trkpt lat="44.81907" lon="1.10668">
        <ele>110.45</ele>
        <time>2021-05-28T09:04:42Z</time>
      </trkpt>
      <trkpt lat="44.81925" lon="1.10662">
        <ele>110.087</ele>
        <time>2021-05-28T09:04:46Z</time>
      </trkpt>
      <trkpt lat="44.81936" lon="1.10654">
        <ele>110.091</ele>
        <time>2021-05-28T09:04:49Z</time>
      </trkpt>
      <trkpt lat="44.81958" lon="1.10619">
        <ele>110.365</ele>
        <time>2021-05-28T09:04:57Z</time>
      </trkpt>
      <trkpt lat="44.81986" lon="1.10587">
        <ele>109.568</ele>
        <time>2021-05-28T09:05:05Z</time>
      </trkpt>
      <trkpt lat="44.82011" lon="1.10563">
        <ele>108.345</ele>
        <time>2021-05-28T09:05:12Z</time>
      </trkpt>
      <trkpt lat="44.82032" lon="1.10536">
        <ele>107.226</ele>
        <time>2021-05-28T09:05:19Z</time>
      </trkpt>
      <trkpt lat="44.82053" lon="1.10504">
        <ele>106.387</ele>
        <time>2021-05-28T09:05:26Z</time>
      </trkpt>
      <trkpt lat="44.82088" lon="1.10429">
        <ele>109.2</ele>
        <time>2021-05-28T09:05:41Z</time>
      </trkpt>
      <trkpt lat="44.82092" lon="1.10416">
        <ele>109.693</ele>
        <time>2021-05-28T09:05:44Z</time>
      </trkpt>
      <trkpt lat="44.82091" lon="1.10404">
        <ele>110.118</ele>
        <time>2021-05-28T09:05:46Z</time>
      </trkpt>
      <trkpt lat="44.82086" lon="1.10388">
        <ele>110.541</ele>
        <time>2021-05-28T09:05:48Z</time>
      </trkpt>
      <trkpt lat="44.82076" lon="1.10374">
        <ele>110.588</ele>
        <time>2021-05-28T09:05:52Z</time>
      </trkpt>
      <trkpt lat="44.82018" lon="1.10326">
        <ele>109.043</ele>
        <time>2021-05-28T09:06:07Z</time>
      </trkpt>
      <trkpt lat="44.82004" lon="1.10306">
        <ele>108.616</ele>
        <time>2021-05-28T09:06:12Z</time>
      </trkpt>
      <trkpt lat="44.81998" lon="1.1029">
        <ele>108.086</ele>
        <time>2021-05-28T09:06:15Z</time>
      </trkpt>
      <trkpt lat="44.81998" lon="1.10242">
        <ele>106.8</ele>
        <time>2021-05-28T09:06:23Z</time>
      </trkpt>
      <trkpt lat="44.82006" lon="1.10161">
        <ele>104.553</ele>
        <time>2021-05-28T09:06:37Z</time>
      </trkpt>
      <trkpt lat="44.82003" lon="1.10144">
        <ele>104.135</ele>
        <time>2021-05-28T09:06:39Z</time>
      </trkpt>
      <trkpt lat="44.81999" lon="1.10136">
        <ele>103.656</ele>
        <time>2021-05-28T09:06:41Z</time>
      </trkpt>
      <trkpt lat="44.81982" lon="1.10132">
        <ele>101.933</ele>
        <time>2021-05-28T09:06:45Z</time>
      </trkpt>
      <trkpt lat="44.81839" lon="1.10145">
        <ele>111.149</ele>
        <time>2021-05-28T09:07:19Z</time>
      </trkpt>
      <trkpt lat="44.81819" lon="1.10149">
        <ele>113.948</ele>
        <time>2021-05-28T09:07:23Z</time>
      </trkpt>
      <trkpt lat="44.81812" lon="1.10161">
        <ele>114.986</ele>
        <time>2021-05-28T09:07:26Z</time>
      </trkpt>
      <trkpt lat="44.8179" lon="1.10231">
        <ele>119.024</ele>
        <time>2021-05-28T09:07:39Z</time>
      </trkpt>
      <trkpt lat="44.8178" lon="1.10242">
        <ele>120.921</ele>
        <time>2021-05-28T09:07:41Z</time>
      </trkpt>
      <trkpt lat="44.81765" lon="1.10252">
        <ele>123.373</ele>
        <time>2021-05-28T09:07:45Z</time>
      </trkpt>
      <trkpt lat="44.8176" lon="1.10262">
        <ele>124.865</ele>
        <time>2021-05-28T09:07:47Z</time>
      </trkpt>
      <trkpt lat="44.81753" lon="1.10309">
        <ele>130.138</ele>
        <time>2021-05-28T09:07:55Z</time>
      </trkpt>
      <trkpt lat="44.81694" lon="1.10441">
        <ele>145.116</ele>
        <time>2021-05-28T09:08:21Z</time>
      </trkpt>
      <trkpt lat="44.8164" lon="1.10423">
        <ele>146.041</ele>
        <time>2021-05-28T09:08:34Z</time>
      </trkpt>
      <trkpt lat="44.8162" lon="1.1041">
        <ele>146.27</ele>
        <time>2021-05-28T09:08:39Z</time>
      </trkpt>
      <trkpt lat="44.81593" lon="1.10381">
        <ele>146.836</ele>
        <time>2021-05-28T09:08:47Z</time>
      </trkpt>
      <trkpt lat="44.81513" lon="1.1028">
        <ele>154.481</ele>
        <time>2021-05-28T09:09:12Z</time>
      </trkpt>
      <trkpt lat="44.81448" lon="1.10191">
        <ele>164.657</ele>
        <time>2021-05-28T09:09:33Z</time>
      </trkpt>
      <trkpt lat="44.81372" lon="1.10094">
        <ele>169.093</ele>
        <time>2021-05-28T09:09:57Z</time>
      </trkpt>
      <trkpt lat="44.8136" lon="1.10036">
        <ele>168.416</ele>
        <time>2021-05-28T09:10:07Z</time>
      </trkpt>
      <trkpt lat="44.81379" lon="1.09972">
        <ele>168.183</ele>
        <time>2021-05-28T09:10:19Z</time>
      </trkpt>
      <trkpt lat="44.81405" lon="1.09804">
        <ele>162.083</ele>
        <time>2021-05-28T09:10:47Z</time>
      </trkpt>
      <trkpt lat="44.81416" lon="1.09753">
        <ele>155.253</ele>
        <time>2021-05-28T09:10:56Z</time>
      </trkpt>
      <trkpt lat="44.81438" lon="1.09704">
        <ele>145.139</ele>
        <time>2021-05-28T09:11:06Z</time>
      </trkpt>
      <trkpt lat="44.81454" lon="1.0969">
        <ele>141.546</ele>
        <time>2021-05-28T09:11:10Z</time>
      </trkpt>
      <trkpt lat="44.8148" lon="1.09682">
        <ele>138.203</ele>
        <time>2021-05-28T09:11:16Z</time>
      </trkpt>
      <trkpt lat="44.8149" lon="1.09676">
        <ele>135.874</ele>
        <time>2021-05-28T09:11:19Z</time>
      </trkpt>
      <trkpt lat="44.81514" lon="1.0967">
        <ele>132.12</ele>
        <time>2021-05-28T09:11:25Z</time>
      </trkpt>
      <trkpt lat="44.81531" lon="1.09662">
        <ele>127.045</ele>
        <time>2021-05-28T09:11:29Z</time>
      </trkpt>
      <trkpt lat="44.81536" lon="1.09662">
        <ele>126.167</ele>
        <time>2021-05-28T09:11:30Z</time>
      </trkpt>
      <trkpt lat="44.81539" lon="1.09658">
        <ele>124.504</ele>
        <time>2021-05-28T09:11:31Z</time>
      </trkpt>
      <trkpt lat="44.8153" lon="1.09626">
        <ele>117.4</ele>
        <time>2021-05-28T09:11:37Z</time>
      </trkpt>
      <trkpt lat="44.81502" lon="1.09562">
        <ele>106.221</ele>
        <time>2021-05-28T09:11:49Z</time>
      </trkpt>
      <trkpt lat="44.815" lon="1.0955">
        <ele>104.187</ele>
        <time>2021-05-28T09:11:51Z</time>
      </trkpt>
      <trkpt lat="44.81491" lon="1.09528">
        <ele>100.38</ele>
        <time>2021-05-28T09:11:55Z</time>
      </trkpt>
      <trkpt lat="44.81483" lon="1.0952">
        <ele>98.863</ele>
        <time>2021-05-28T09:11:58Z</time>
      </trkpt>
      <trkpt lat="44.81472" lon="1.09515">
        <ele>97.795</ele>
        <time>2021-05-28T09:12:00Z</time>
      </trkpt>
      <trkpt lat="44.81448" lon="1.09516">
        <ele>98.112</ele>
        <time>2021-05-28T09:12:06Z</time>
      </trkpt>
      <trkpt lat="44.81422" lon="1.09508">
        <ele>96.399</ele>
        <time>2021-05-28T09:12:12Z</time>
      </trkpt>
      <trkpt lat="44.81405" lon="1.09497">
        <ele>96.327</ele>
        <time>2021-05-28T09:12:17Z</time>
      </trkpt>
      <trkpt lat="44.81403" lon="1.09493">
        <ele>96.348</ele>
        <time>2021-05-28T09:12:17Z</time>
      </trkpt>
      <trkpt lat="44.81399" lon="1.09479">
        <ele>96.116</ele>
        <time>2021-05-28T09:12:20Z</time>
      </trkpt>
      <trkpt lat="44.8141" lon="1.0939">
        <ele>100.873</ele>
        <time>2021-05-28T09:12:35Z</time>
      </trkpt>
      <trkpt lat="44.81416" lon="1.09383">
        <ele>101.348</ele>
        <time>2021-05-28T09:12:37Z</time>
      </trkpt>
      <trkpt lat="44.81457" lon="1.09373">
        <ele>99.996</ele>
        <time>2021-05-28T09:12:46Z</time>
      </trkpt>
      <trkpt lat="44.8149" lon="1.0936">
        <ele>99.446</ele>
        <time>2021-05-28T09:12:54Z</time>
      </trkpt>
      <trkpt lat="44.81512" lon="1.09357">
        <ele>98.006</ele>
        <time>2021-05-28T09:13:00Z</time>
      </trkpt>
      <trkpt lat="44.81522" lon="1.09361">
        <ele>99.598</ele>
        <time>2021-05-28T09:13:02Z</time>
      </trkpt>
      <trkpt lat="44.81532" lon="1.09371">
        <ele>99.683</ele>
        <time>2021-05-28T09:13:05Z</time>
      </trkpt>
      <trkpt lat="44.81571" lon="1.09453">
        <ele>99.316</ele>
        <time>2021-05-28T09:13:21Z</time>
      </trkpt>
      <trkpt lat="44.81572" lon="1.09459">
        <ele>98.733</ele>
        <time>2021-05-28T09:13:22Z</time>
      </trkpt>
      <trkpt lat="44.81563" lon="1.09465">
        <ele>96.573</ele>
        <time>2021-05-28T09:13:25Z</time>
      </trkpt>
      <trkpt lat="44.8156" lon="1.09463">
        <ele>96.256</ele>
        <time>2021-05-28T09:13:25Z</time>
      </trkpt>
      <trkpt lat="44.8156" lon="1.09467">
        <ele>95.976</ele>
        <time>2021-05-28T09:13:26Z</time>
      </trkpt>
      <trkpt lat="44.81581" lon="1.09463">
        <ele>99.667</ele>
        <time>2021-05-28T09:13:31Z</time>
      </trkpt>
      <trkpt lat="44.81611" lon="1.09482">
        <ele>97.834</ele>
        <time>2021-05-28T09:13:39Z</time>
      </trkpt>
      <trkpt lat="44.81637" lon="1.09489">
        <ele>96.446</ele>
        <time>2021-05-28T09:13:45Z</time>
      </trkpt>
      <trkpt lat="44.81666" lon="1.09492">
        <ele>96.304</ele>
        <time>2021-05-28T09:13:52Z</time>
      </trkpt>
      <trkpt lat="44.81717" lon="1.09502">
        <ele>95.247</ele>
        <time>2021-05-28T09:14:04Z</time>
      </trkpt>
      <trkpt lat="44.81751" lon="1.09503">
        <ele>95.323</ele>
        <time>2021-05-28T09:14:12Z</time>
      </trkpt>
      <trkpt lat="44.81819" lon="1.09518">
        <ele>94.983</ele>
        <time>2021-05-28T09:14:28Z</time>
      </trkpt>
      <trkpt lat="44.81857" lon="1.09522">
        <ele>95.021</ele>
        <time>2021-05-28T09:14:37Z</time>
      </trkpt>
      <trkpt lat="44.81947" lon="1.09545">
        <ele>87.657</ele>
        <time>2021-05-28T09:14:58Z</time>
      </trkpt>
      <trkpt lat="44.81974" lon="1.09548">
        <ele>85.965</ele>
        <time>2021-05-28T09:15:04Z</time>
      </trkpt>
      <trkpt lat="44.82008" lon="1.09548">
        <ele>85.598</ele>
        <time>2021-05-28T09:15:12Z</time>
      </trkpt>
      <trkpt lat="44.82043" lon="1.09544">
        <ele>84.367</ele>
        <time>2021-05-28T09:15:20Z</time>
      </trkpt>
      <trkpt lat="44.82103" lon="1.09547">
        <ele>81.139</ele>
        <time>2021-05-28T09:15:34Z</time>
      </trkpt>
      <trkpt lat="44.82129" lon="1.09546">
        <ele>80.566</ele>
        <time>2021-05-28T09:15:40Z</time>
      </trkpt>
      <trkpt lat="44.82214" lon="1.09537">
        <ele>80.557</ele>
        <time>2021-05-28T09:16:00Z</time>
      </trkpt>
      <trkpt lat="44.82311" lon="1.09518">
        <ele>80.966</ele>
        <time>2021-05-28T09:16:23Z</time>
      </trkpt>
      <trkpt lat="44.82346" lon="1.09515">
        <ele>80.394</ele>
        <time>2021-05-28T09:16:31Z</time>
      </trkpt>
      <trkpt lat="44.82429" lon="1.09472">
        <ele>80.146</ele>
        <time>2021-05-28T09:16:52Z</time>
      </trkpt>
      <trkpt lat="44.82438" lon="1.09472">
        <ele>79.909</ele>
        <time>2021-05-28T09:16:54Z</time>
      </trkpt>
      <trkpt lat="44.82439" lon="1.0947">
        <ele>80.021</ele>
        <time>2021-05-28T09:16:55Z</time>
      </trkpt>
      <trkpt lat="44.82435" lon="1.0947">
        <ele>80.127</ele>
        <time>2021-05-28T09:16:56Z</time>
      </trkpt>
      <trkpt lat="44.82406" lon="1.09488">
        <ele>80.091</ele>
        <time>2021-05-28T09:17:03Z</time>
      </trkpt>
      <trkpt lat="44.82504" lon="1.09441">
        <ele>79.598</ele>
        <time>2021-05-28T09:17:27Z</time>
      </trkpt>
      <trkpt lat="44.82515" lon="1.09427">
        <ele>79.578</ele>
        <time>2021-05-28T09:17:31Z</time>
      </trkpt>
      <trkpt lat="44.82518" lon="1.09432">
        <ele>79.224</ele>
        <time>2021-05-28T09:17:48Z</time>
      </trkpt>
      <trkpt lat="44.82533" lon="1.09445">
        <ele>78.087</ele>
        <time>2021-05-28T09:17:52Z</time>
      </trkpt>
      <trkpt lat="44.82551" lon="1.0944">
        <ele>77.468</ele>
        <time>2021-05-28T09:17:56Z</time>
      </trkpt>
      <trkpt lat="44.82563" lon="1.09432">
        <ele>77.32</ele>
        <time>2021-05-28T09:17:59Z</time>
      </trkpt>
      <trkpt lat="44.82572" lon="1.09412">
        <ele>77.465</ele>
        <time>2021-05-28T09:18:03Z</time>
      </trkpt>
      <trkpt lat="44.82581" lon="1.0938">
        <ele>78.563</ele>
        <time>2021-05-28T09:18:09Z</time>
      </trkpt>
      <trkpt lat="44.82594" lon="1.09347">
        <ele>79.011</ele>
        <time>2021-05-28T09:18:15Z</time>
      </trkpt>
      <trkpt lat="44.82625" lon="1.09291">
        <ele>79.491</ele>
        <time>2021-05-28T09:18:27Z</time>
      </trkpt>
      <trkpt lat="44.82645" lon="1.09219">
        <ele>79.485</ele>
        <time>2021-05-28T09:18:40Z</time>
      </trkpt>
      <trkpt lat="44.82649" lon="1.09178">
        <ele>79.285</ele>
        <time>2021-05-28T09:18:47Z</time>
      </trkpt>
      <trkpt lat="44.82655" lon="1.09165">
        <ele>79.01</ele>
        <time>2021-05-28T09:18:49Z</time>
      </trkpt>
      <trkpt lat="44.82662" lon="1.09155">
        <ele>78.761</ele>
        <time>2021-05-28T09:18:52Z</time>
      </trkpt>
      <trkpt lat="44.82671" lon="1.09151">
        <ele>78.479</ele>
        <time>2021-05-28T09:18:54Z</time>
      </trkpt>
      <trkpt lat="44.82712" lon="1.09146">
        <ele>77.449</ele>
        <time>2021-05-28T09:19:03Z</time>
      </trkpt>
      <trkpt lat="44.82729" lon="1.09137">
        <ele>77.164</ele>
        <time>2021-05-28T09:19:08Z</time>
      </trkpt>
      <trkpt lat="44.82765" lon="1.09093">
        <ele>77.038</ele>
        <time>2021-05-28T09:19:19Z</time>
      </trkpt>
      <trkpt lat="44.82795" lon="1.09048">
        <ele>76.615</ele>
        <time>2021-05-28T09:19:29Z</time>
      </trkpt>
      <trkpt lat="44.82843" lon="1.08992">
        <ele>75.848</ele>
        <time>2021-05-28T09:19:43Z</time>
      </trkpt>
      <trkpt lat="44.82868" lon="1.08967">
        <ele>75.673</ele>
        <time>2021-05-28T09:19:51Z</time>
      </trkpt>
      <trkpt lat="44.82919" lon="1.08903">
        <ele>74.57</ele>
        <time>2021-05-28T09:20:07Z</time>
      </trkpt>
      <trkpt lat="44.82995" lon="1.08836">
        <ele>73.863</ele>
        <time>2021-05-28T09:20:28Z</time>
      </trkpt>
      <trkpt lat="44.83021" lon="1.08804">
        <ele>73.755</ele>
        <time>2021-05-28T09:20:36Z</time>
      </trkpt>
      <trkpt lat="44.83037" lon="1.08768">
        <ele>73.912</ele>
        <time>2021-05-28T09:20:43Z</time>
      </trkpt>
      <trkpt lat="44.83067" lon="1.08636">
        <ele>73.544</ele>
        <time>2021-05-28T09:21:06Z</time>
      </trkpt>
      <trkpt lat="44.83066" lon="1.08623">
        <ele>73.79</ele>
        <time>2021-05-28T09:21:08Z</time>
      </trkpt>
      <trkpt lat="44.83058" lon="1.08609">
        <ele>74.359</ele>
        <time>2021-05-28T09:21:11Z</time>
      </trkpt>
      <trkpt lat="44.82996" lon="1.08552">
        <ele>77.243</ele>
        <time>2021-05-28T09:21:28Z</time>
      </trkpt>
      <trkpt lat="44.82973" lon="1.08534">
        <ele>78.044</ele>
        <time>2021-05-28T09:21:34Z</time>
      </trkpt>
      <trkpt lat="44.82968" lon="1.08525">
        <ele>78.296</ele>
        <time>2021-05-28T09:21:36Z</time>
      </trkpt>
      <trkpt lat="44.82964" lon="1.08489">
        <ele>79.618</ele>
        <time>2021-05-28T09:21:42Z</time>
      </trkpt>
      <trkpt lat="44.82971" lon="1.08439">
        <ele>80.592</ele>
        <time>2021-05-28T09:21:51Z</time>
      </trkpt>
      <trkpt lat="44.82971" lon="1.0842">
        <ele>81.005</ele>
        <time>2021-05-28T09:21:54Z</time>
      </trkpt>
      <trkpt lat="44.82961" lon="1.08402">
        <ele>83.23</ele>
        <time>2021-05-28T09:21:57Z</time>
      </trkpt>
      <trkpt lat="44.82948" lon="1.08399">
        <ele>85.824</ele>
        <time>2021-05-28T09:22:01Z</time>
      </trkpt>
      <trkpt lat="44.82937" lon="1.08404">
        <ele>87.636</ele>
        <time>2021-05-28T09:22:03Z</time>
      </trkpt>
      <trkpt lat="44.82924" lon="1.08423">
        <ele>88.636</ele>
        <time>2021-05-28T09:22:08Z</time>
      </trkpt>
      <trkpt lat="44.82908" lon="1.08438">
        <ele>89.8</ele>
        <time>2021-05-28T09:22:12Z</time>
      </trkpt>
      <trkpt lat="44.82887" lon="1.08465">
        <ele>88.977</ele>
        <time>2021-05-28T09:22:19Z</time>
      </trkpt>
      <trkpt lat="44.82881" lon="1.08464">
        <ele>89.475</ele>
        <time>2021-05-28T09:22:20Z</time>
      </trkpt>
      <trkpt lat="44.82864" lon="1.08428">
        <ele>95.188</ele>
        <time>2021-05-28T09:22:27Z</time>
      </trkpt>
      <trkpt lat="44.82859" lon="1.08424">
        <ele>95.96</ele>
        <time>2021-05-28T09:22:29Z</time>
      </trkpt>
      <trkpt lat="44.82851" lon="1.0841">
        <ele>98.108</ele>
        <time>2021-05-28T09:22:32Z</time>
      </trkpt>
      <trkpt lat="44.82819" lon="1.084">
        <ele>96.505</ele>
        <time>2021-05-28T09:22:39Z</time>
      </trkpt>
      <trkpt lat="44.82804" lon="1.08392">
        <ele>96.462</ele>
        <time>2021-05-28T09:22:43Z</time>
      </trkpt>
      <trkpt lat="44.82742" lon="1.08351">
        <ele>105.15</ele>
        <time>2021-05-28T09:22:59Z</time>
      </trkpt>
      <trkpt lat="44.82678" lon="1.08301">
        <ele>112.508</ele>
        <time>2021-05-28T09:23:16Z</time>
      </trkpt>
      <trkpt lat="44.82664" lon="1.08295">
        <ele>112.985</ele>
        <time>2021-05-28T09:23:20Z</time>
      </trkpt>
      <trkpt lat="44.82654" lon="1.08295">
        <ele>113.899</ele>
        <time>2021-05-28T09:23:22Z</time>
      </trkpt>
      <trkpt lat="44.8265" lon="1.08304">
        <ele>114.208</ele>
        <time>2021-05-28T09:23:24Z</time>
      </trkpt>
      <trkpt lat="44.82658" lon="1.0834">
        <ele>112.603</ele>
        <time>2021-05-28T09:23:30Z</time>
      </trkpt>
      <trkpt lat="44.82665" lon="1.08356">
        <ele>112.624</ele>
        <time>2021-05-28T09:23:33Z</time>
      </trkpt>
      <trkpt lat="44.8267" lon="1.08385">
        <ele>114.366</ele>
        <time>2021-05-28T09:23:38Z</time>
      </trkpt>
      <trkpt lat="44.82684" lon="1.08439">
        <ele>115.168</ele>
        <time>2021-05-28T09:23:47Z</time>
      </trkpt>
      <trkpt lat="44.82679" lon="1.08448">
        <ele>116.952</ele>
        <time>2021-05-28T09:23:49Z</time>
      </trkpt>
      <trkpt lat="44.82674" lon="1.08478">
        <ele>117.891</ele>
        <time>2021-05-28T09:23:54Z</time>
      </trkpt>
      <trkpt lat="44.82665" lon="1.08491">
        <ele>118.553</ele>
        <time>2021-05-28T09:23:57Z</time>
      </trkpt>
      <trkpt lat="44.82654" lon="1.08501">
        <ele>119.597</ele>
        <time>2021-05-28T09:24:00Z</time>
      </trkpt>
      <trkpt lat="44.82641" lon="1.08507">
        <ele>121.37</ele>
        <time>2021-05-28T09:24:04Z</time>
      </trkpt>
      <trkpt lat="44.82626" lon="1.08506">
        <ele>123.886</ele>
        <time>2021-05-28T09:24:07Z</time>
      </trkpt>
      <trkpt lat="44.82622" lon="1.08503">
        <ele>124.227</ele>
        <time>2021-05-28T09:24:08Z</time>
      </trkpt>
      <trkpt lat="44.82616" lon="1.08495">
        <ele>124.844</ele>
        <time>2021-05-28T09:24:10Z</time>
      </trkpt>
      <trkpt lat="44.82621" lon="1.08463">
        <ele>126.243</ele>
        <time>2021-05-28T09:24:16Z</time>
      </trkpt>
      <trkpt lat="44.82621" lon="1.08433">
        <ele>125.82</ele>
        <time>2021-05-28T09:24:21Z</time>
      </trkpt>
      <trkpt lat="44.82617" lon="1.08419">
        <ele>126.007</ele>
        <time>2021-05-28T09:24:23Z</time>
      </trkpt>
      <trkpt lat="44.82599" lon="1.0839">
        <ele>127.185</ele>
        <time>2021-05-28T09:24:29Z</time>
      </trkpt>
      <trkpt lat="44.82577" lon="1.08366">
        <ele>129.106</ele>
        <time>2021-05-28T09:24:36Z</time>
      </trkpt>
      <trkpt lat="44.82564" lon="1.08347">
        <ele>130.672</ele>
        <time>2021-05-28T09:24:40Z</time>
      </trkpt>
      <trkpt lat="44.82525" lon="1.08306">
        <ele>137.655</ele>
        <time>2021-05-28T09:24:52Z</time>
      </trkpt>
      <trkpt lat="44.82499" lon="1.08274">
        <ele>145.217</ele>
        <time>2021-05-28T09:25:00Z</time>
      </trkpt>
      <trkpt lat="44.8248" lon="1.08239">
        <ele>152.217</ele>
        <time>2021-05-28T09:25:07Z</time>
      </trkpt>
      <trkpt lat="44.82477" lon="1.08223">
        <ele>154.051</ele>
        <time>2021-05-28T09:25:10Z</time>
      </trkpt>
      <trkpt lat="44.82469" lon="1.08207">
        <ele>156.319</ele>
        <time>2021-05-28T09:25:13Z</time>
      </trkpt>
      <trkpt lat="44.82463" lon="1.08187">
        <ele>157.658</ele>
        <time>2021-05-28T09:25:17Z</time>
      </trkpt>
      <trkpt lat="44.82461" lon="1.08164">
        <ele>158.342</ele>
        <time>2021-05-28T09:25:20Z</time>
      </trkpt>
      <trkpt lat="44.82465" lon="1.08138">
        <ele>158.944</ele>
        <time>2021-05-28T09:25:25Z</time>
      </trkpt>
      <trkpt lat="44.82464" lon="1.08101">
        <ele>162.302</ele>
        <time>2021-05-28T09:25:31Z</time>
      </trkpt>
      <trkpt lat="44.82477" lon="1.08043">
        <ele>168.04</ele>
        <time>2021-05-28T09:25:41Z</time>
      </trkpt>
      <trkpt lat="44.82474" lon="1.08024">
        <ele>170.827</ele>
        <time>2021-05-28T09:25:44Z</time>
      </trkpt>
      <trkpt lat="44.82453" lon="1.08025">
        <ele>172.165</ele>
        <time>2021-05-28T09:25:49Z</time>
      </trkpt>
      <trkpt lat="44.82428" lon="1.08051">
        <ele>171.195</ele>
        <time>2021-05-28T09:25:56Z</time>
      </trkpt>
      <trkpt lat="44.82417" lon="1.08059">
        <ele>171.152</ele>
        <time>2021-05-28T09:25:59Z</time>
      </trkpt>
      <trkpt lat="44.82405" lon="1.08058">
        <ele>172.243</ele>
        <time>2021-05-28T09:26:02Z</time>
      </trkpt>
      <trkpt lat="44.82402" lon="1.08046">
        <ele>173.957</ele>
        <time>2021-05-28T09:26:04Z</time>
      </trkpt>
      <trkpt lat="44.82408" lon="1.08018">
        <ele>176.787</ele>
        <time>2021-05-28T09:26:09Z</time>
      </trkpt>
      <trkpt lat="44.82422" lon="1.07992">
        <ele>178.65</ele>
        <time>2021-05-28T09:26:15Z</time>
      </trkpt>
      <trkpt lat="44.82429" lon="1.07965">
        <ele>181.386</ele>
        <time>2021-05-28T09:26:19Z</time>
      </trkpt>
      <trkpt lat="44.8243" lon="1.07947">
        <ele>183.275</ele>
        <time>2021-05-28T09:26:22Z</time>
      </trkpt>
      <trkpt lat="44.82397" lon="1.07886">
        <ele>190.753</ele>
        <time>2021-05-28T09:26:35Z</time>
      </trkpt>
      <trkpt lat="44.82374" lon="1.07854">
        <ele>194.109</ele>
        <time>2021-05-28T09:26:43Z</time>
      </trkpt>
      <trkpt lat="44.82367" lon="1.07822">
        <ele>197.12</ele>
        <time>2021-05-28T09:26:48Z</time>
      </trkpt>
      <trkpt lat="44.82383" lon="1.07772">
        <ele>199.41</ele>
        <time>2021-05-28T09:26:57Z</time>
      </trkpt>
      <trkpt lat="44.82395" lon="1.07705">
        <ele>203.933</ele>
        <time>2021-05-28T09:27:09Z</time>
      </trkpt>
      <trkpt lat="44.82408" lon="1.07659">
        <ele>205.022</ele>
        <time>2021-05-28T09:27:17Z</time>
      </trkpt>
      <trkpt lat="44.82419" lon="1.07604">
        <ele>206.42</ele>
        <time>2021-05-28T09:27:26Z</time>
      </trkpt>
      <trkpt lat="44.82446" lon="1.07529">
        <ele>204.408</ele>
        <time>2021-05-28T09:27:40Z</time>
      </trkpt>
      <trkpt lat="44.82472" lon="1.07552">
        <ele>198.903</ele>
        <time>2021-05-28T09:27:47Z</time>
      </trkpt>
      <trkpt lat="44.82492" lon="1.07531">
        <ele>196.112</ele>
        <time>2021-05-28T09:27:53Z</time>
      </trkpt>
      <trkpt lat="44.82511" lon="1.07498">
        <ele>193.94</ele>
        <time>2021-05-28T09:28:00Z</time>
      </trkpt>
      <trkpt lat="44.82525" lon="1.07463">
        <ele>192.731</ele>
        <time>2021-05-28T09:28:07Z</time>
      </trkpt>
      <trkpt lat="44.82538" lon="1.07413">
        <ele>192.097</ele>
        <time>2021-05-28T09:28:16Z</time>
      </trkpt>
      <trkpt lat="44.82575" lon="1.0731">
        <ele>189.98</ele>
        <time>2021-05-28T09:28:35Z</time>
      </trkpt>
      <trkpt lat="44.82597" lon="1.07273">
        <ele>188.662</ele>
        <time>2021-05-28T09:28:43Z</time>
      </trkpt>
      <trkpt lat="44.82608" lon="1.07228">
        <ele>187.953</ele>
        <time>2021-05-28T09:28:51Z</time>
      </trkpt>
      <trkpt lat="44.82607" lon="1.07189">
        <ele>188.495</ele>
        <time>2021-05-28T09:28:57Z</time>
      </trkpt>
      <trkpt lat="44.82545" lon="1.07171">
        <ele>198.111</ele>
        <time>2021-05-28T09:29:12Z</time>
      </trkpt>
      <trkpt lat="44.82514" lon="1.07168">
        <ele>203.318</ele>
        <time>2021-05-28T09:29:19Z</time>
      </trkpt>
      <trkpt lat="44.82438" lon="1.07137">
        <ele>211.019</ele>
        <time>2021-05-28T09:29:38Z</time>
      </trkpt>
      <trkpt lat="44.82319" lon="1.07099">
        <ele>219.542</ele>
        <time>2021-05-28T09:30:06Z</time>
      </trkpt>
      <trkpt lat="44.82253" lon="1.07041">
        <ele>224.21</ele>
        <time>2021-05-28T09:30:24Z</time>
      </trkpt>
      <trkpt lat="44.82205" lon="1.07005">
        <ele>226.406</ele>
        <time>2021-05-28T09:30:37Z</time>
      </trkpt>
      <trkpt lat="44.82216" lon="1.0692">
        <ele>226.217</ele>
        <time>2021-05-28T09:30:51Z</time>
      </trkpt>
      <trkpt lat="44.82213" lon="1.06893">
        <ele>226.03</ele>
        <time>2021-05-28T09:30:56Z</time>
      </trkpt>
      <trkpt lat="44.8218" lon="1.06869">
        <ele>228.646</ele>
        <time>2021-05-28T09:31:05Z</time>
      </trkpt>
      <trkpt lat="44.82171" lon="1.06821">
        <ele>229.897</ele>
        <time>2021-05-28T09:31:13Z</time>
      </trkpt>
      <trkpt lat="44.8219" lon="1.06804">
        <ele>228.723</ele>
        <time>2021-05-28T09:31:18Z</time>
      </trkpt>
      <trkpt lat="44.82241" lon="1.06787">
        <ele>225.364</ele>
        <time>2021-05-28T09:31:30Z</time>
      </trkpt>
      <trkpt lat="44.82282" lon="1.0676">
        <ele>224.477</ele>
        <time>2021-05-28T09:31:41Z</time>
      </trkpt>
      <trkpt lat="44.82333" lon="1.06696">
        <ele>223.074</ele>
        <time>2021-05-28T09:31:57Z</time>
      </trkpt>
      <trkpt lat="44.82358" lon="1.06639">
        <ele>221.94</ele>
        <time>2021-05-28T09:32:08Z</time>
      </trkpt>
      <trkpt lat="44.8237" lon="1.06563">
        <ele>220.166</ele>
        <time>2021-05-28T09:32:21Z</time>
      </trkpt>
      <trkpt lat="44.82448" lon="1.06493">
        <ele>214.339</ele>
        <time>2021-05-28T09:32:42Z</time>
      </trkpt>
      <trkpt lat="44.82442" lon="1.06462">
        <ele>212.187</ele>
        <time>2021-05-28T09:32:48Z</time>
      </trkpt>
      <trkpt lat="44.82451" lon="1.06425">
        <ele>208.863</ele>
        <time>2021-05-28T09:32:54Z</time>
      </trkpt>
      <trkpt lat="44.82471" lon="1.06364">
        <ele>201.979</ele>
        <time>2021-05-28T09:33:05Z</time>
      </trkpt>
      <trkpt lat="44.82488" lon="1.06327">
        <ele>197.34</ele>
        <time>2021-05-28T09:33:13Z</time>
      </trkpt>
      <trkpt lat="44.82514" lon="1.0629">
        <ele>193.209</ele>
        <time>2021-05-28T09:33:21Z</time>
      </trkpt>
      <trkpt lat="44.82539" lon="1.06263">
        <ele>191.492</ele>
        <time>2021-05-28T09:33:29Z</time>
      </trkpt>
      <trkpt lat="44.82565" lon="1.06208">
        <ele>189.747</ele>
        <time>2021-05-28T09:33:40Z</time>
      </trkpt>
      <trkpt lat="44.82535" lon="1.0619">
        <ele>188.577</ele>
        <time>2021-05-28T09:33:47Z</time>
      </trkpt>
      <trkpt lat="44.82495" lon="1.06182">
        <ele>188.259</ele>
        <time>2021-05-28T09:33:57Z</time>
      </trkpt>
      <trkpt lat="44.82459" lon="1.06181">
        <ele>188.821</ele>
        <time>2021-05-28T09:34:05Z</time>
      </trkpt>
      <trkpt lat="44.82456" lon="1.06132">
        <ele>188.044</ele>
        <time>2021-05-28T09:34:13Z</time>
      </trkpt>
      <trkpt lat="44.82456" lon="1.06069">
        <ele>188</ele>
        <time>2021-05-28T09:34:24Z</time>
      </trkpt>
      <trkpt lat="44.82433" lon="1.0601">
        <ele>185.639</ele>
        <time>2021-05-28T09:34:35Z</time>
      </trkpt>
      <trkpt lat="44.82459" lon="1.0597">
        <ele>184.857</ele>
        <time>2021-05-28T09:34:44Z</time>
      </trkpt>
      <trkpt lat="44.82451" lon="1.05922">
        <ele>183.944</ele>
        <time>2021-05-28T09:34:52Z</time>
      </trkpt>
      <trkpt lat="44.8242" lon="1.05843">
        <ele>182.553</ele>
        <time>2021-05-28T09:35:07Z</time>
      </trkpt>
      <trkpt lat="44.82382" lon="1.05794">
        <ele>180.504</ele>
        <time>2021-05-28T09:35:19Z</time>
      </trkpt>
      <trkpt lat="44.82339" lon="1.0571">
        <ele>176.798</ele>
        <time>2021-05-28T09:35:36Z</time>
      </trkpt>
      <trkpt lat="44.82303" lon="1.05629">
        <ele>172.728</ele>
        <time>2021-05-28T09:35:52Z</time>
      </trkpt>
      <trkpt lat="44.82267" lon="1.05576">
        <ele>177.23</ele>
        <time>2021-05-28T09:36:04Z</time>
      </trkpt>
      <trkpt lat="44.82224" lon="1.05495">
        <ele>174.298</ele>
        <time>2021-05-28T09:36:21Z</time>
      </trkpt>
      <trkpt lat="44.82194" lon="1.05417">
        <ele>167.727</ele>
        <time>2021-05-28T09:36:35Z</time>
      </trkpt>
      <trkpt lat="44.82164" lon="1.05352">
        <ele>163.269</ele>
        <time>2021-05-28T09:36:48Z</time>
      </trkpt>
      <trkpt lat="44.82159" lon="1.05305">
        <ele>164.705</ele>
        <time>2021-05-28T09:36:56Z</time>
      </trkpt>
      <trkpt lat="44.8219" lon="1.05261">
        <ele>162.001</ele>
        <time>2021-05-28T09:37:06Z</time>
      </trkpt>
      <trkpt lat="44.82314" lon="1.05139">
        <ele>153.427</ele>
        <time>2021-05-28T09:37:42Z</time>
      </trkpt>
      <trkpt lat="44.82353" lon="1.05092">
        <ele>151.7</ele>
        <time>2021-05-28T09:37:54Z</time>
      </trkpt>
      <trkpt lat="44.82373" lon="1.05053">
        <ele>149.983</ele>
        <time>2021-05-28T09:38:02Z</time>
      </trkpt>
      <trkpt lat="44.82377" lon="1.05009">
        <ele>148.895</ele>
        <time>2021-05-28T09:38:09Z</time>
      </trkpt>
      <trkpt lat="44.82325" lon="1.05066">
        <ele>151.42</ele>
        <time>2021-05-28T09:38:24Z</time>
      </trkpt>
      <trkpt lat="44.82159" lon="1.05201">
        <ele>169.957</ele>
        <time>2021-05-28T09:39:09Z</time>
      </trkpt>
      <trkpt lat="44.8211" lon="1.05249">
        <ele>178.312</ele>
        <time>2021-05-28T09:39:23Z</time>
      </trkpt>
      <trkpt lat="44.82047" lon="1.05351">
        <ele>188.346</ele>
        <time>2021-05-28T09:39:46Z</time>
      </trkpt>
      <trkpt lat="44.82015" lon="1.05439">
        <ele>196.581</ele>
        <time>2021-05-28T09:40:02Z</time>
      </trkpt>
      <trkpt lat="44.81929" lon="1.05455">
        <ele>206.81</ele>
        <time>2021-05-28T09:40:22Z</time>
      </trkpt>
      <trkpt lat="44.81875" lon="1.0545">
        <ele>211.572</ele>
        <time>2021-05-28T09:40:35Z</time>
      </trkpt>
      <trkpt lat="44.8165" lon="1.05295">
        <ele>237.99</ele>
        <time>2021-05-28T09:41:33Z</time>
      </trkpt>
      <trkpt lat="44.81539" lon="1.05208">
        <ele>243.971</ele>
        <time>2021-05-28T09:42:03Z</time>
      </trkpt>
      <trkpt lat="44.81521" lon="1.05126">
        <ele>246.697</ele>
        <time>2021-05-28T09:42:17Z</time>
      </trkpt>
      <trkpt lat="44.81489" lon="1.05013">
        <ele>255.394</ele>
        <time>2021-05-28T09:42:37Z</time>
      </trkpt>
      <trkpt lat="44.81469" lon="1.0506">
        <ele>256.68</ele>
        <time>2021-05-28T09:42:46Z</time>
      </trkpt>
      <trkpt lat="44.81441" lon="1.05143">
        <ele>253.735</ele>
        <time>2021-05-28T09:43:02Z</time>
      </trkpt>
      <trkpt lat="44.81389" lon="1.05221">
        <ele>247.634</ele>
        <time>2021-05-28T09:43:19Z</time>
      </trkpt>
      <trkpt lat="44.81352" lon="1.05257">
        <ele>249.78</ele>
        <time>2021-05-28T09:43:30Z</time>
      </trkpt>
      <trkpt lat="44.8128" lon="1.05241">
        <ele>253.249</ele>
        <time>2021-05-28T09:43:47Z</time>
      </trkpt>
      <trkpt lat="44.81222" lon="1.05251">
        <ele>249.126</ele>
        <time>2021-05-28T09:44:01Z</time>
      </trkpt>
      <trkpt lat="44.81173" lon="1.05272">
        <ele>244.238</ele>
        <time>2021-05-28T09:44:13Z</time>
      </trkpt>
      <trkpt lat="44.81089" lon="1.05315">
        <ele>233.471</ele>
        <time>2021-05-28T09:44:33Z</time>
      </trkpt>
      <trkpt lat="44.81096" lon="1.05341">
        <ele>233.38</ele>
        <time>2021-05-28T09:44:38Z</time>
      </trkpt>
      <trkpt lat="44.8112" lon="1.05364">
        <ele>233.309</ele>
        <time>2021-05-28T09:44:45Z</time>
      </trkpt>
      <trkpt lat="44.81117" lon="1.05384">
        <ele>232.321</ele>
        <time>2021-05-28T09:44:48Z</time>
      </trkpt>
      <trkpt lat="44.81105" lon="1.05401">
        <ele>232.035</ele>
        <time>2021-05-28T09:44:52Z</time>
      </trkpt>
      <trkpt lat="44.81073" lon="1.0542">
        <ele>230.916</ele>
        <time>2021-05-28T09:45:00Z</time>
      </trkpt>
      <trkpt lat="44.81051" lon="1.05428">
        <ele>230.888</ele>
        <time>2021-05-28T09:45:06Z</time>
      </trkpt>
      <trkpt lat="44.81046" lon="1.05427">
        <ele>231.106</ele>
        <time>2021-05-28T09:45:07Z</time>
      </trkpt>
      <trkpt lat="44.81045" lon="1.05419">
        <ele>231.758</ele>
        <time>2021-05-28T09:45:08Z</time>
      </trkpt>
    </trkseg>
  </trk>
</gpx>